M I D A S
Marine Information and Data Acquisition System
Tripno 666 of the Zeeleeuw from 2004-03-12 07:35:30 to 2004-03-12 13:04:31
Back to CruiseResearch ActivitiesStationsMapUnderway DataData graphs

EquipmentUnitsComment
TimeDGPSUTC
LatitudeDGPSDM.mWGS84
LongitudeDGPSDM.mWGS84
TemperatureSBE03/SBE38deg celciusITS90
ConductivitySBE21S/mITS90
SalinitySBE21 Practical Salinity Units
ChlorophylAChelsea fluorimeterg/lCalibrated in Aceton
Missing or incorrect values are displayed as -999
Sea surface data collected by the RV Zeeleeuw from 2004-03-12 07:35:30 to 2004-03-12 13:04:31
                                                                                    Next 1000 lines
Time Latitude Longitude Temperature Conductivity Salinity ChlorophylA
2004-03-12 07:35:38 51°13.673 2°55.768 5.585639 2.350391 22.53316 9.264153
2004-03-12 07:35:43 51°13.673 2°55.765 5.444653 1.473287 13.564827 9.163024
2004-03-12 07:35:49 51°13.674 2°55.763 5.444653 1.473287 13.564827 9.163024
2004-03-12 07:35:53 51°13.675 2°55.762 5.519284 2.340931 22.484817 9.803503
2004-03-12 07:35:59 51°13.676 2°55.762 5.445005 2.314443 22.253566 9.466409
2004-03-12 07:36:03 51°13.677 2°55.764 5.443041 2.350708 22.680087 9.39899
2004-03-12 07:36:09 51°13.678 2°55.765 5.417607 2.488125 24.1566 9.466409
2004-03-12 07:36:14 51°13.68 2°55.766 5.430048 2.515151 24.468091 9.97205
2004-03-12 07:36:19 51°13.68 2°55.765 5.430048 2.515151 24.468091 9.97205
2004-03-12 07:36:24 51°13.68 2°55.764 5.397654 2.325481 22.467733 9.264153
2004-03-12 07:36:29 51°13.68 2°55.762 5.436998 2.563318 25.02148 9.297862
2004-03-12 07:36:33 51°13.679 2°55.759 5.436696 2.586247 25.284651 8.960768
2004-03-12 07:36:39 51°13.678 2°55.756 5.484974 2.176247 20.954962 9.39899
2004-03-12 07:36:45 51°13.676 2°55.752 5.356521 2.606126 25.556929 9.702375
2004-03-12 07:36:49 51°13.675 2°55.751 5.356521 2.606126 25.556929 9.702375
2004-03-12 07:36:54 51°13.676 2°55.749 5.383291 2.268409 21.975888 10.781076
2004-03-12 07:36:59 51°13.677 2°55.749 5.323888 2.573837 25.250711 9.264153
2004-03-12 07:37:03 51°13.679 2°55.748 5.347696 2.382143 23.217218 9.601247
2004-03-12 07:37:09 51°13.683 2°55.747 5.331556 2.641576 26.030765 10.949623
2004-03-12 07:37:14 51°13.685 2°55.745 5.359849 2.061944 19.851631 11.219298
2004-03-12 07:37:19 51°13.688 2°55.743 5.359849 2.061944 19.851631 11.219298
2004-03-12 07:37:23 51°13.69 2°55.741 5.343863 2.582357 25.4114 11.253007
2004-03-12 07:37:27 51°13.692 2°55.739 5.339021 2.341776 22.856568 11.185589
2004-03-12 07:37:33 51°13.695 2°55.736 5.371344 2.581095 25.420997 11.253007
2004-03-12 07:37:39 51°13.698 2°55.732 5.324241 2.098291 20.269594 11.623811
2004-03-12 07:37:43 51°13.701 2°55.73 5.377847 2.456162 24.091214 11.286717
2004-03-12 07:37:49 51°13.706 2°55.725 5.377847 2.456162 24.091214 11.286717
2004-03-12 07:37:53 51°13.71 2°55.721 5.2926 1.496986 14.045951 11.11817
2004-03-12 07:37:58 51°13.715 2°55.716 5.338466 2.324012 22.697882 11.354136
2004-03-12 07:38:03 51°13.722 2°55.711 5.278213 1.554766 14.645645 11.08446
2004-03-12 07:38:09 51°13.73 2°55.703 5.298606 2.557221 25.216671 11.11817
2004-03-12 07:38:13 51°13.736 2°55.698 5.295376 1.627979 15.402352 10.983332
2004-03-12 07:38:19 51°13.745 2°55.691 5.295376 1.627979 15.402352 10.983332
2004-03-12 07:38:24 51°13.753 2°55.685 4.827054 1.915441 18.401573 12.23058
2004-03-12 07:38:29 51°13.761 2°55.678 4.779388 1.922267 18.503736 13.949759
2004-03-12 07:38:33 51°13.768 2°55.673 4.765341 1.939278 18.747962 12.533965
2004-03-12 07:38:39 51°13.778 2°55.665 4.76188 2.072347 20.30232 11.387845
2004-03-12 07:38:43 51°13.786 2°55.66 4.757603 2.415478 24.20551 10.005759
2004-03-12 07:38:49 51°13.797 2°55.652 4.757603 2.415478 24.20551 10.005759
2004-03-12 07:38:53 51°13.804 2°55.647 4.757909 2.545028 25.72031 12.297999
2004-03-12 07:38:59 51°13.816 2°55.638 4.763559 2.521787 25.541426 12.76993
2004-03-12 07:39:03 51°13.823 2°55.633 4.765596 2.589203 26.324887 12.297999
2004-03-12 07:39:09 51°13.835 2°55.625 4.761676 2.580894 26.247957 12.399127
2004-03-12 07:39:13 51°13.843 2°55.62 4.772518 2.568483 26.12032 12.23058
2004-03-12 07:39:19 51°13.855 2°55.611 4.772518 2.568483 26.12032 12.23058
2004-03-12 07:39:23 51°13.863 2°55.606 4.771652 2.57574 26.205552 12.365418
2004-03-12 07:39:29 51°13.875 2°55.598 4.775164 2.57248 26.168421 12.668802
2004-03-12 07:39:34 51°13.885 2°55.59 4.779541 2.5668 26.11046 11.927195
2004-03-12 07:39:37 51°13.892 2°55.586 4.778625 2.565959 26.10037 12.601383
2004-03-12 07:39:43 51°13.904 2°55.577 4.774706 2.550498 25.927001 11.960905
2004-03-12 07:39:49 51°13.917 2°55.569 4.774706 2.550498 25.927001 11.960905
2004-03-12 07:39:54 51°13.927 2°55.561 4.784172 2.540297 25.810413 11.590101
2004-03-12 07:39:58 51°13.935 2°55.555 4.768446 2.531253 25.714261 11.994614
2004-03-12 07:40:04 51°13.948 2°55.546 4.758418 2.522839 25.620433 11.859777
2004-03-12 07:40:09 51°13.959 2°55.539 4.76244 2.513375 25.516944 11.893486
2004-03-12 07:40:13 51°13.967 2°55.532 4.758113 2.52 25.592147 11.724939
2004-03-12 07:40:19 51°13.979 2°55.523 4.758113 2.52 25.592147 11.724939
2004-03-12 07:40:23 51°13.988 2°55.517 4.766715 2.508117 25.460361 11.994614
2004-03-12 07:40:29 51°14 2°55.508 4.740241 2.534513 25.761489 11.826067
2004-03-12 07:40:33 51°14.009 2°55.502 4.750018 2.534303 25.761179 11.994614
2004-03-12 07:40:38 51°14.02 2°55.494 4.742533 2.557966 26.032333 11.994614
2004-03-12 07:40:43 51°14.031 2°55.486 4.741005 2.594147 26.435067 12.297999
2004-03-12 07:40:49 51°14.044 2°55.477 4.741005 2.594147 26.435067 12.297999
2004-03-12 07:40:53 51°14.053 2°55.47 4.744162 2.580158 26.284014 12.264289
2004-03-12 07:40:59 51°14.067 2°55.461 4.755669 2.630646 26.85409 12.331708
2004-03-12 07:41:03 51°14.076 2°55.454 4.753073 2.663782 27.227011 12.668802
2004-03-12 07:41:07 51°14.085 2°55.447 4.756891 2.666728 27.265882 12.668802
2004-03-12 07:41:13 51°14.098 2°55.437 4.774554 2.672829 27.334512 12.23058
2004-03-12 07:41:19 51°14.112 2°55.426 4.774554 2.672829 27.334512 12.23058
2004-03-12 07:41:23 51°14.12 2°55.419 4.773841 2.636852 26.929438 13.005896
2004-03-12 07:41:29 51°14.134 2°55.407 4.748032 2.671672 27.315007 12.466546
2004-03-12 07:41:33 51°14.144 2°55.399 4.747065 2.687347 27.492814 12.23058
2004-03-12 07:41:39 51°14.158 2°55.386 4.750476 2.684296 27.451235 12.668802
2004-03-12 07:41:43 51°14.168 2°55.376 4.76188 2.680193 27.403632 11.69123
2004-03-12 07:41:49 51°14.183 2°55.361 4.76188 2.680193 27.403632 11.69123
2004-03-12 07:41:54 51°14.195 2°55.347 4.747166 2.681771 27.434406 11.994614
2004-03-12 07:41:59 51°14.208 2°55.333 4.736218 2.667464 27.271285 11.994614
2004-03-12 07:42:04 51°14.22 2°55.317 4.746352 2.667885 27.282496 12.399127
2004-03-12 07:42:07 51°14.227 2°55.308 4.743246 2.653262 27.108778 12.028324
2004-03-12 07:42:13 51°14.241 2°55.288 4.725574 2.646635 27.035751 11.994614
2004-03-12 07:42:19 51°14.255 2°55.266 4.725574 2.646635 27.035751 11.994614
2004-03-12 07:42:23 51°14.263 2°55.251 4.722263 2.635695 26.92497 11.522683
2004-03-12 07:42:29 51°14.277 2°55.228 4.723231 2.624861 26.794823 11.590101
2004-03-12 07:42:34 51°14.288 2°55.209 4.723893 2.600037 26.519917 11.488973
2004-03-12 07:42:39 51°14.299 2°55.188 4.714979 2.61024 26.64205 11.219298
2004-03-12 07:42:43 51°14.307 2°55.171 4.717271 2.575215 26.255697 11.185589
2004-03-12 07:42:49 51°14.32 2°55.145 4.717271 2.575215 26.255697 11.185589
2004-03-12 07:42:53 51°14.328 2°55.127 4.724352 2.606979 26.61601 11.994614
2004-03-12 07:42:59 51°14.34 2°55.101 4.715794 2.618024 26.739979 11.185589
2004-03-12 07:43:03 51°14.348 2°55.083 4.714571 2.617919 26.744448 11.320426
2004-03-12 07:43:09 51°14.36 2°55.057 4.706675 2.630646 26.889557 11.69123
2004-03-12 07:43:14 51°14.37 2°55.034 4.698777 2.63801 26.973034 11.354136
2004-03-12 07:43:19 51°14.38 2°55.011 4.698777 2.63801 26.973034 11.354136
2004-03-12 07:43:23 51°14.388 2°54.993 4.696026 2.658943 27.204912 11.724939
2004-03-12 07:43:29 51°14.4 2°54.965 4.711005 2.630226 26.887669 11.590101
2004-03-12 07:43:33 51°14.408 2°54.946 4.708101 2.636537 26.960039 11.590101
2004-03-12 07:43:39 51°14.42 2°54.919 4.701834 2.661258 27.24319 11.960905
2004-03-12 07:43:43 51°14.428 2°54.902 4.694599 2.67325 27.3826 11.623811
2004-03-12 07:43:49 51°14.441 2°54.877 4.694599 2.67325 27.3826 11.623811
2004-03-12 07:43:53 51°14.449 2°54.862 4.685272 2.621495 26.800187 11.893486
2004-03-12 07:43:57 51°14.457 2°54.847 4.683132 2.645584 27.072504 11.960905
2004-03-12 07:44:03 51°14.469 2°54.827 4.661263 2.675565 27.409405 12.432836
2004-03-12 07:44:08 51°14.479 2°54.81 4.645047 2.6965 27.648382 12.028324
2004-03-12 07:44:13 51°14.489 2°54.794 4.634489 2.7167 27.880087 12.331708
2004-03-12 07:44:19 51°14.5 2°54.776 4.634489 2.7167 27.880087 12.331708
2004-03-12 07:44:23 51°14.508 2°54.763 4.63 2.735427 28.097667 12.533965
2004-03-12 07:44:29 51°14.519 2°54.745 4.628878 2.74921 28.264052 12.635093
2004-03-12 07:44:33 51°14.526 2°54.734 4.616838 2.763415 28.436195 12.399127
2004-03-12 07:44:37 51°14.533 2°54.722 4.623215 2.763099 28.444665 12.331708
2004-03-12 07:44:43 51°14.544 2°54.706 4.620919 2.793088 28.791778 12.399127
2004-03-12 07:44:49 51°14.554 2°54.689 4.620919 2.793088 28.791778 12.399127
2004-03-12 07:44:54 51°14.563 2°54.676 4.624185 2.804768 28.928303 12.264289
2004-03-12 07:44:59 51°14.571 2°54.663 4.63 2.803926 28.922567 11.65752
2004-03-12 07:45:03 51°14.578 2°54.653 4.625307 2.826866 29.185782 11.623811
2004-03-12 07:45:09 51°14.589 2°54.638 4.630459 2.821499 29.128575 11.826067
2004-03-12 07:45:14 51°14.597 2°54.626 4.640406 2.846124 29.411281 11.488973
2004-03-12 07:45:18 51°14.603 2°54.617 4.640406 2.846124 29.411281 11.488973
2004-03-12 07:45:24 51°14.613 2°54.604 4.63102 2.856543 29.528449 11.590101
2004-03-12 07:45:29 51°14.62 2°54.595 4.634183 2.859174 29.557657 11.590101
2004-03-12 07:45:33 51°14.626 2°54.587 4.6376 2.871276 29.69488 11.826067
2004-03-12 07:45:38 51°14.633 2°54.579 4.64112 2.877065 29.75618 11.286717
2004-03-12 07:45:44 51°14.642 2°54.57 4.638059 2.882327 29.817798 11.219298
2004-03-12 07:45:49 51°14.649 2°54.563 4.638059 2.882327 29.817798 11.219298
2004-03-12 07:45:53 51°14.654 2°54.558 4.652441 2.888747 29.891862 11.556392
2004-03-12 07:45:59 51°14.662 2°54.551 4.639182 2.889904 29.905078 12.028324
2004-03-12 07:46:04 51°14.668 2°54.546 4.637753 2.899587 30.013254 11.219298
2004-03-12 07:46:09 51°14.674 2°54.541 4.64622 2.880959 29.799027 11.219298
2004-03-12 07:46:13 51°14.679 2°54.537 4.661721 2.901376 30.030505 11.792358
2004-03-12 07:46:19 51°14.685 2°54.533 4.661721 2.901376 30.030505 11.792358
2004-03-12 07:46:23 51°14.69 2°54.529 4.652798 2.906112 30.082207 11.65752
2004-03-12 07:46:29 51°14.696 2°54.525 4.659682 2.89643 29.970843 11.488973
2004-03-12 07:46:33 51°14.7 2°54.522 4.658407 2.895693 29.961638 11.792358
2004-03-12 07:46:39 51°14.706 2°54.519 4.644588 2.885694 29.841204 11.387845
2004-03-12 07:46:43 51°14.711 2°54.516 4.645455 2.907375 30.086268 11.387845
2004-03-12 07:46:49 51°14.716 2°54.513 4.645455 2.907375 30.086268 11.387845
2004-03-12 07:46:53 51°14.72 2°54.51 4.656827 2.905691 30.064651 11.354136
2004-03-12 07:46:59 51°14.725 2°54.507 4.65754 2.867066 29.624095 11.556392
2004-03-12 07:47:03 51°14.729 2°54.504 4.66009 2.915479 30.181225 11.320426
2004-03-12 07:47:09 51°14.734 2°54.501 4.647189 2.914111 30.168792 11.455264
2004-03-12 07:47:13 51°14.737 2°54.499 4.640151 2.910427 30.124315 11.623811
2004-03-12 07:47:19 51°14.741 2°54.495 4.640151 2.910427 30.124315 11.623811
2004-03-12 07:47:23 51°14.744 2°54.493 4.631888 2.911269 30.131538 11.320426
2004-03-12 07:47:29 51°14.749 2°54.49 4.629898 2.909796 30.116305 11.522683
2004-03-12 07:47:33 51°14.752 2°54.488 4.635356 2.917164 30.202865 11.11817
2004-03-12 07:47:39 51°14.756 2°54.485 4.638468 2.918532 30.221702 11.354136
2004-03-12 07:47:43 51°14.759 2°54.483 4.630051 2.899692 30.011274 11.488973
2004-03-12 07:47:49 51°14.763 2°54.48 4.630051 2.899692 30.011274 11.488973
2004-03-12 07:47:53 51°14.766 2°54.478 4.632959 2.914848 30.186807 11.556392
2004-03-12 07:47:59 51°14.77 2°54.475 4.633112 2.902534 30.049301 11.455264
2004-03-12 07:48:04 51°14.773 2°54.473 4.63102 2.911901 30.159525 11.11817
2004-03-12 07:48:09 51°14.776 2°54.471 4.628266 2.915374 30.199226 11.320426
2004-03-12 07:48:14 51°14.779 2°54.468 4.619593 2.914322 30.187995 11.151879
2004-03-12 07:48:19 51°14.783 2°54.466 4.619593 2.914322 30.187995 11.151879
2004-03-12 07:48:23 51°14.785 2°54.464 4.627296 2.887589 29.8834 11.185589
2004-03-12 07:48:29 51°14.788 2°54.461 4.618062 2.915269 30.198823 11.219298
2004-03-12 07:48:33 51°14.791 2°54.459 4.62194 2.906533 30.099779 11.185589
2004-03-12 07:48:39 51°14.794 2°54.456 4.630102 2.896851 29.991545 11.08446
2004-03-12 07:48:43 51°14.797 2°54.454 4.622093 2.913164 30.178761 11.11817
2004-03-12 07:48:49 51°14.8 2°54.451 4.622093 2.913164 30.178761 11.11817
2004-03-12 07:48:53 51°14.803 2°54.45 4.618011 2.908849 30.131832 11.320426
2004-03-12 07:48:59 51°14.807 2°54.446 4.612807 2.91569 30.210044 11.050751
2004-03-12 07:49:03 51°14.811 2°54.443 4.619593 2.909901 30.142264 11.590101
2004-03-12 07:49:09 51°14.817 2°54.437 4.624593 2.908954 30.133035 11.08446
2004-03-12 07:49:13 51°14.821 2°54.432 4.621736 2.892325 29.943826 10.848494
2004-03-12 07:49:19 51°14.829 2°54.422 4.621736 2.892325 29.943826 10.848494
2004-03-12 07:49:23 51°14.835 2°54.415 4.619695 2.889589 29.916541 11.050751
2004-03-12 07:49:29 51°14.846 2°54.402 4.619491 2.901166 30.049604 11.08446
2004-03-12 07:49:34 51°14.856 2°54.392 4.61546 2.916953 30.230899 11.151879
2004-03-12 07:49:39 51°14.866 2°54.381 4.613521 2.90906 30.139033 11.08446
2004-03-12 07:49:43 51°14.876 2°54.372 4.616225 2.896535 29.997483 10.882204
2004-03-12 07:49:49 51°14.89 2°54.357 4.616225 2.896535 29.997483 10.882204
2004-03-12 07:49:53 51°14.9 2°54.346 4.611021 2.91148 30.16911 11.320426
2004-03-12 07:49:59 51°14.916 2°54.329 4.612807 2.90706 30.118569 11.017042
2004-03-12 07:50:03 51°14.927 2°54.318 4.616634 2.911901 30.173924 10.983332
2004-03-12 07:50:09 51°14.944 2°54.299 4.620307 2.918006 30.246147 11.11817
2004-03-12 07:50:13 51°14.956 2°54.287 4.62097 2.930215 30.388272 10.983332
2004-03-12 07:50:19 51°14.974 2°54.268 4.62097 2.930215 30.388272 10.983332
2004-03-12 07:50:23 51°14.986 2°54.255 4.617093 2.912217 30.18314 10.848494
2004-03-12 07:50:29 51°15.004 2°54.236 4.610613 2.882748 29.846337 11.017042
2004-03-12 07:50:33 51°15.016 2°54.223 4.60847 2.916953 30.234107 10.612529
2004-03-12 07:50:39 51°15.035 2°54.204 4.607449 2.893483 29.965791 10.646238
2004-03-12 07:50:43 51°15.047 2°54.19 4.602448 2.916111 30.224476 10.915913
2004-03-12 07:50:47 51°15.06 2°54.177 4.602448 2.916111 30.224476 10.915913
2004-03-12 07:50:53 51°15.078 2°54.156 4.596681 2.919374 30.265011 10.713657
2004-03-12 07:50:59 51°15.096 2°54.135 4.600866 2.916322 30.232498 10.54511
2004-03-12 07:51:03 51°15.109 2°54.121 4.602448 2.916953 30.241328 10.848494
2004-03-12 07:51:09 51°15.128 2°54.099 4.596579 2.903482 30.091232 10.309144
2004-03-12 07:51:13 51°15.14 2°54.084 4.59959 2.915796 30.2345 10.848494
2004-03-12 07:51:19 51°15.159 2°54.063 4.59959 2.915796 30.2345 10.848494
2004-03-12 07:51:23 51°15.172 2°54.049 4.602703 2.906534 30.131736 10.949623
2004-03-12 07:51:29 51°15.191 2°54.028 4.59862 2.899272 30.049475 10.747366
2004-03-12 07:51:33 51°15.204 2°54.015 4.614644 2.916322 30.245338 10.646238
2004-03-12 07:51:39 51°15.225 2°53.996 4.589331 2.90485 30.114072 10.174306
2004-03-12 07:51:43 51°15.238 2°53.985 4.595507 2.91127 30.186722 10.781076
2004-03-12 07:51:49 51°15.259 2°53.968 4.595507 2.91127 30.186722 10.781076
2004-03-12 07:51:53 51°15.274 2°53.958 4.591679 2.888116 29.923523 10.747366
2004-03-12 07:51:59 51°15.295 2°53.943 4.600764 2.904639 30.109266 10.747366
2004-03-12 07:52:03 51°15.31 2°53.934 4.589229 2.905692 30.121305 10.376563
2004-03-12 07:52:09 51°15.331 2°53.919 4.587391 2.89664 30.018591 10.342853
2004-03-12 07:52:13 51°15.346 2°53.91 4.582439 2.878854 29.816107 10.140597
2004-03-12 07:52:19 51°15.367 2°53.894 4.582439 2.878854 29.816107 10.140597
2004-03-12 07:52:23 51°15.381 2°53.882 4.594333 2.906113 30.125321 10.073178
2004-03-12 07:52:29 51°15.401 2°53.864 4.581878 2.907481 30.144172 10.376563
2004-03-12 07:52:33 51°15.415 2°53.851 4.592546 2.906534 30.138135 10.039469
2004-03-12 07:52:39 51°15.435 2°53.832 4.593567 2.911586 30.199955 10.342853
2004-03-12 07:52:43 51°15.449 2°53.819 4.589841 2.910533 30.189511 9.938341
2004-03-12 07:52:49 51°15.469 2°53.8 4.589841 2.910533 30.189511 9.938341
2004-03-12 07:52:54 51°15.486 2°53.784 4.590147 2.929479 30.407269 9.837212
2004-03-12 07:52:59 51°15.504 2°53.769 4.590607 2.885169 29.898573 9.736084
2004-03-12 07:53:03 51°15.517 2°53.757 4.59372 2.923058 30.332111 9.870922
2004-03-12 07:53:09 51°15.538 2°53.739 4.58785 2.930952 30.423344 9.634956
2004-03-12 07:53:13 51°15.552 2°53.728 4.596476 2.921058 30.308404 9.736084
2004-03-12 07:53:19 51°15.574 2°53.712 4.596476 2.921058 30.308404 9.736084
2004-03-12 07:53:23 51°15.588 2°53.701 4.603111 2.931794 30.431376 9.634956
2004-03-12 07:53:29 51°15.609 2°53.685 4.593873 2.934215 30.459114 9.365281
2004-03-12 07:53:34 51°15.627 2°53.672 4.595098 2.932321 30.437406 9.500118
2004-03-12 07:53:39 51°15.645 2°53.658 4.597089 2.922953 30.326879 9.230443
2004-03-12 07:53:43 51°15.66 2°53.648 4.597957 2.93853 30.502089 9.129315
2004-03-12 07:53:49 51°15.681 2°53.631 4.597957 2.93853 30.502089 9.129315
2004-03-12 07:53:53 51°15.695 2°53.62 4.602091 2.918848 30.275859 9.264153
2004-03-12 07:53:59 51°15.717 2°53.604 4.592189 2.932636 30.435366 9.365281
2004-03-12 07:54:03 51°15.731 2°53.592 4.585349 2.935057 30.463909 9.061896
2004-03-12 07:54:09 51°15.752 2°53.576 4.597242 2.922953 30.323658 9.567537
2004-03-12 07:54:13 51°15.766 2°53.565 4.601274 2.938846 30.503278 9.061896
2004-03-12 07:54:19 51°15.788 2°53.548 4.601274 2.938846 30.503278 9.061896
2004-03-12 07:54:23 51°15.802 2°53.537 4.593669 2.939478 30.512944 8.994477
2004-03-12 07:54:29 51°15.823 2°53.52 4.586778 2.934426 30.4591 9.163024
2004-03-12 07:54:33 51°15.837 2°53.508 4.592495 2.936004 30.478809 9.230443
2004-03-12 07:54:39 51°15.858 2°53.492 4.589841 2.938952 30.509343 9.095606
2004-03-12 07:54:43 51°15.873 2°53.481 4.582541 2.936215 30.478793 9.196734
2004-03-12 07:54:49 51°15.894 2°53.464 4.582541 2.936215 30.478793 9.196734
2004-03-12 07:54:53 51°15.908 2°53.453 4.588003 2.917164 30.263009 9.129315
2004-03-12 07:54:59 51°15.93 2°53.437 4.577079 2.932005 30.435404 9.061896
2004-03-12 07:55:03 51°15.944 2°53.426 4.581163 2.928321 30.394812 9.095606
2004-03-12 07:55:09 51°15.965 2°53.409 4.592853 2.920848 30.310018 9.163024
2004-03-12 07:55:14 51°15.983 2°53.396 4.601427 2.932952 30.450302 8.82593
2004-03-12 07:55:19 51°16.001 2°53.382 4.601427 2.932952 30.450302 8.82593
2004-03-12 07:55:24 51°16.019 2°53.369 4.612348 2.928005 30.396038 8.85964
2004-03-12 07:55:27 51°16.03 2°53.361 4.621736 2.927163 30.38639 8.82593
2004-03-12 07:55:33 51°16.051 2°53.345 4.630357 2.923164 30.335733 8.960768
2004-03-12 07:55:39 51°16.072 2°53.328 4.639437 2.888642 29.9351 9.163024
2004-03-12 07:55:43 51°16.087 2°53.318 4.6452 2.938109 30.494026 9.196734
2004-03-12 07:55:49 51°16.109 2°53.302 4.6452 2.938109 30.494026 9.196734
2004-03-12 07:55:53 51°16.123 2°53.291 4.643976 2.931689 30.412403 9.837212
2004-03-12 07:55:59 51°16.145 2°53.275 4.635509 2.940635 30.505965 9.736084
2004-03-12 07:56:03 51°16.159 2°53.264 4.634693 2.94053 30.495051 9.837212
2004-03-12 07:56:09 51°16.181 2°53.248 4.631377 2.933899 30.41592 9.904631
2004-03-12 07:56:13 51°16.195 2°53.238 4.63102 2.942951 30.517102 9.702375
2004-03-12 07:56:19 51°16.217 2°53.221 4.63102 2.942951 30.517102 9.702375
2004-03-12 07:56:23 51°16.231 2°53.211 4.631428 2.936004 30.436783 9.702375
2004-03-12 07:56:29 51°16.252 2°53.195 4.638621 2.940425 30.490611 9.870922
2004-03-12 07:56:33 51°16.267 2°53.184 4.638672 2.94274 30.518739 9.803503
2004-03-12 07:56:39 51°16.288 2°53.168 4.633826 2.939372 30.482604 9.297862
2004-03-12 07:56:43 51°16.303 2°53.157 4.637447 2.941793 30.510321 9.601247
2004-03-12 07:56:49 51°16.324 2°53.141 4.637447 2.941793 30.510321 9.601247
2004-03-12 07:56:51 51°16.331 2°53.136 4.640304 2.940635 30.496256 9.466409
2004-03-12 07:56:59 51°16.36 2°53.114 4.639794 2.938635 30.471745 9.297862
2004-03-12 07:57:03 51°16.374 2°53.103 4.645455 2.94274 30.518739 9.365281
2004-03-12 07:57:09 51°16.396 2°53.087 4.651574 2.932425 30.400671 9.297862
2004-03-12 07:57:11 51°16.403 2°53.081 4.649025 2.939162 30.476961 9.39899
2004-03-12 07:57:19 51°16.431 2°53.06 4.649025 2.939162 30.476961 9.39899
2004-03-12 07:57:23 51°16.446 2°53.05 4.657795 2.951687 30.617947 9.500118
2004-03-12 07:57:29 51°16.467 2°53.034 4.658203 2.94653 30.555644 9.230443
2004-03-12 07:57:33 51°16.482 2°53.023 4.661314 2.949792 30.58976 9.095606
2004-03-12 07:57:39 51°16.503 2°53.007 4.662639 2.949371 30.583317 9.39899
2004-03-12 07:57:43 51°16.517 2°52.996 4.660294 2.955055 30.64515 9.095606
2004-03-12 07:57:49 51°16.539 2°52.98 4.660294 2.955055 30.64515 9.095606
2004-03-12 07:57:53 51°16.553 2°52.969 4.662384 2.959055 30.686887 9.500118
2004-03-12 07:57:57 51°16.567 2°52.958 4.668196 2.959266 30.686858 9.095606
2004-03-12 07:58:03 51°16.588 2°52.941 4.666259 2.95474 30.635038 9.331571
2004-03-12 07:58:09 51°16.61 2°52.925 4.66682 2.961687 30.714581 9.061896
2004-03-12 07:58:13 51°16.624 2°52.914 4.672479 2.963055 30.729438 9.264153
2004-03-12 07:58:19 51°16.645 2°52.898 4.675588 2.960844 30.70087 9.129315
2004-03-12 07:58:23 51°16.659 2°52.887 4.675588 2.960844 30.70087 9.129315
2004-03-12 07:58:29 51°16.681 2°52.871 4.683845 2.960529 30.696441 8.994477
2004-03-12 07:58:33 51°16.695 2°52.861 4.681858 2.961055 30.700026 9.061896
2004-03-12 07:58:39 51°16.716 2°52.845 4.674721 2.962318 30.709606 8.927059
2004-03-12 07:58:43 51°16.731 2°52.835 4.67829 2.957581 30.653765 8.960768
2004-03-12 07:58:49 51°16.752 2°52.819 4.67829 2.957581 30.653765 8.960768
2004-03-12 07:58:53 51°16.766 2°52.808 4.6867 2.958108 30.658164 8.893349
2004-03-12 07:58:59 51°16.787 2°52.792 4.676658 2.968528 30.775819 9.230443
2004-03-12 07:59:04 51°16.804 2°52.779 4.671816 2.967792 30.769828 8.960768
2004-03-12 07:59:09 51°16.821 2°52.767 4.679564 2.968634 30.77947 9.264153
2004-03-12 07:59:14 51°16.839 2°52.753 4.672733 2.965055 30.735238 8.927059
2004-03-12 07:59:19 51°16.856 2°52.74 4.672733 2.965055 30.735238 8.927059
2004-03-12 07:59:23 51°16.87 2°52.729 4.676557 2.958529 30.659734 8.960768
2004-03-12 07:59:29 51°16.89 2°52.714 4.680583 2.95916 30.669398 8.758512
2004-03-12 07:59:33 51°16.904 2°52.703 4.680736 2.968844 30.778619 8.960768
2004-03-12 07:59:39 51°16.925 2°52.687 4.675384 2.969265 30.78344 8.994477
2004-03-12 07:59:44 51°16.943 2°52.674 4.674365 2.954003 30.61119 8.82593
2004-03-12 07:59:49 51°16.96 2°52.661 4.674365 2.954003 30.61119 8.82593
2004-03-12 07:59:53 51°16.974 2°52.65 4.672275 2.971055 30.806376 8.927059
2004-03-12 07:59:59 51°16.996 2°52.634 4.669828 2.970318 30.797123 8.82593
2004-03-12 08:00:03 51°17.01 2°52.623 4.669012 2.969581 30.790317 8.623674
2004-03-12 08:00:09 51°17.031 2°52.606 4.670541 2.974844 30.848957 8.455127
2004-03-12 08:00:13 51°17.045 2°52.596 4.671102 2.974634 30.849814 8.85964
2004-03-12 08:00:19 51°17.067 2°52.58 4.671102 2.974634 30.849814 8.85964
2004-03-12 08:00:23 51°17.081 2°52.569 4.669012 2.975897 30.865101 8.82593
2004-03-12 08:00:29 51°17.102 2°52.553 4.667177 2.975055 30.859542 8.522546
2004-03-12 08:00:33 51°17.116 2°52.543 4.667992 2.961687 30.704816 8.960768
2004-03-12 08:00:39 51°17.137 2°52.527 4.663659 2.965581 30.748592 8.792221
2004-03-12 08:00:43 51°17.151 2°52.517 4.667075 2.96516 30.744586 8.455127
2004-03-12 08:00:49 51°17.172 2°52.5 4.667075 2.96516 30.744586 8.455127
2004-03-12 08:00:54 51°17.19 2°52.486 4.667788 2.968528 30.783157 8.455127
2004-03-12 08:00:59 51°17.207 2°52.471 4.657234 2.968844 30.787589 8.387708
2004-03-12 08:01:03 51°17.22 2°52.459 4.656419 2.971897 30.824184 8.421418
2004-03-12 08:01:09 51°17.241 2°52.439 4.653665 2.954213 30.624955 8.421418
2004-03-12 08:01:13 51°17.254 2°52.426 4.661263 2.976634 30.881723 8.387708
2004-03-12 08:01:19 51°17.275 2°52.407 4.661263 2.976634 30.881723 8.387708
2004-03-12 08:01:23 51°17.288 2°52.394 4.651931 2.973055 30.839899 8.050614
2004-03-12 08:01:29 51°17.309 2°52.375 4.652798 2.97895 30.913175 8.320289
2004-03-12 08:01:33 51°17.322 2°52.362 4.660855 2.970423 30.816286 8.28658
2004-03-12 08:01:39 51°17.342 2°52.341 4.647546 2.97116 30.823911 8.219161
2004-03-12 08:01:43 51°17.355 2°52.327 4.64979 2.980002 30.927699 8.252871
2004-03-12 08:01:49 51°17.375 2°52.305 4.64979 2.980002 30.927699 8.252871
2004-03-12 08:01:53 51°17.388 2°52.29 4.645965 2.967476 30.785784 8.219161
2004-03-12 08:01:59 51°17.406 2°52.267 4.645353 2.975476 30.875 8.151742
2004-03-12 08:02:03 51°17.419 2°52.252 4.649025 2.980213 30.930933 8.455127
2004-03-12 08:02:09 51°17.438 2°52.229 4.648107 2.972739 30.849361 8.219161
2004-03-12 08:02:14 51°17.454 2°52.21 4.643721 2.987055 31.015137 8.353999
2004-03-12 08:02:19 51°17.47 2°52.191 4.643721 2.987055 31.015137 8.353999
2004-03-12 08:02:23 51°17.483 2°52.176 4.653767 2.987687 31.023204 8.084324
2004-03-12 08:02:29 51°17.502 2°52.154 4.647342 2.988423 31.031656 8.219161
2004-03-12 08:02:33 51°17.514 2°52.139 4.646118 2.981687 30.954391 8.219161
2004-03-12 08:02:39 51°17.534 2°52.117 4.652543 2.986529 31.009923 8.185452
2004-03-12 08:02:43 51°17.546 2°52.102 4.654124 2.979476 30.927405 8.151742
2004-03-12 08:02:49 51°17.564 2°52.077 4.654124 2.979476 30.927405 8.151742
2004-03-12 08:02:53 51°17.576 2°52.059 4.660294 2.983055 30.968441 8.421418
2004-03-12 08:02:59 51°17.593 2°52.033 4.663557 2.991371 31.062997 8.252871
2004-03-12 08:03:03 51°17.604 2°52.015 4.668859 2.97716 30.900855 8.151742
2004-03-12 08:03:09 51°17.621 2°51.988 4.67829 2.984844 30.987319 8.118033
2004-03-12 08:03:13 51°17.632 2°51.97 4.677474 2.99116 31.058111 8.455127
2004-03-12 08:03:19 51°17.649 2°51.943 4.677474 2.99116 31.058111 8.455127
2004-03-12 08:03:23 51°17.66 2°51.925 4.682469 2.997687 31.129684 8.151742
2004-03-12 08:03:29 51°17.676 2°51.898 4.692407 2.986739 31.000009 8.28658
2004-03-12 08:03:34 51°17.69 2°51.875 4.690675 2.988844 31.018393 8.421418
2004-03-12 08:03:39 51°17.704 2°51.853 4.695057 3.003371 31.180859 8.556255
2004-03-12 08:03:43 51°17.715 2°51.835 4.70372 3.001897 31.158176 8.589965
2004-03-12 08:03:49 51°17.732 2°51.808 4.70372 3.001897 31.158176 8.589965
2004-03-12 08:03:53 51°17.743 2°51.79 4.71447 2.994318 31.066338 8.589965
2004-03-12 08:03:59 51°17.76 2°51.763 4.7134 3.008108 31.221142 8.724802
2004-03-12 08:04:04 51°17.774 2°51.74 4.716151 2.980423 30.900584 8.556255
2004-03-12 08:04:09 51°17.788 2°51.718 4.72751 2.997055 31.085361 8.657383
2004-03-12 08:04:13 51°17.799 2°51.7 4.731126 3.008739 31.215159 8.455127
2004-03-12 08:04:19 51°17.816 2°51.673 4.731126 3.008739 31.215159 8.455127
2004-03-12 08:04:23 51°17.827 2°51.655 4.727459 2.997686 31.083547 8.893349
2004-03-12 08:04:29 51°17.844 2°51.629 4.72807 3.013266 31.257955 8.724802
2004-03-12 08:04:34 51°17.858 2°51.606 4.730718 3.005371 31.160875 8.724802
2004-03-12 08:04:39 51°17.872 2°51.584 4.732908 3.014634 31.260408 8.556255
2004-03-12 08:04:43 51°17.884 2°51.566 4.730464 3.016845 31.283258 8.792221
2004-03-12 08:04:49 51°17.9 2°51.538 4.730464 3.016845 31.283258 8.792221
2004-03-12 08:04:53 51°17.912 2°51.52 4.723893 3.008213 31.184363 8.758512
2004-03-12 08:04:59 51°17.928 2°51.492 4.727612 3.018529 31.301732 8.353999
2004-03-12 08:05:03 51°17.94 2°51.474 4.725829 3.000634 31.098387 8.522546
2004-03-12 08:05:09 51°17.956 2°51.447 4.731941 3.016003 31.273608 8.792221
2004-03-12 08:05:14 51°17.97 2°51.424 4.726084 3.021372 31.337621 8.522546
2004-03-12 08:05:19 51°17.985 2°51.401 4.726084 3.021372 31.337621 8.522546
2004-03-12 08:05:23 51°17.996 2°51.383 4.725778 3.02074 31.329553 8.724802
2004-03-12 08:05:29 51°18.014 2°51.356 4.727866 3.020108 31.321485 8.691093
2004-03-12 08:05:33 51°18.025 2°51.338 4.726593 3.023372 31.358061 8.792221
2004-03-12 08:05:39 51°18.043 2°51.311 4.738867 3.011582 31.223777 8.994477
2004-03-12 08:05:43 51°18.054 2°51.292 4.73082 3.019898 31.3199 8.960768
2004-03-12 08:05:49 51°18.072 2°51.265 4.73082 3.019898 31.3199 8.960768
2004-03-12 08:05:54 51°18.086 2°51.243 4.735149 3.024214 31.369374 8.82593
2004-03-12 08:05:59 51°18.1 2°51.219 4.725778 3.023161 31.356477 8.691093
2004-03-12 08:06:03 51°18.112 2°51.202 4.723995 3.013371 31.24428 9.061896
2004-03-12 08:06:09 51°18.13 2°51.174 4.726287 3.022635 31.349614 8.82593
2004-03-12 08:06:13 51°18.141 2°51.156 4.720633 3.01895 31.304902 8.691093
2004-03-12 08:06:19 51°18.159 2°51.129 4.720633 3.01895 31.304902 8.691093
2004-03-12 08:06:24 51°18.173 2°51.107 4.722162 3.020951 31.32948 8.691093
2004-03-12 08:06:29 51°18.187 2°51.084 4.716864 3.015371 31.268852 8.623674
2004-03-12 08:06:33 51°18.198 2°51.066 4.710394 2.999686 31.092473 8.758512
2004-03-12 08:06:39 51°18.215 2°51.038 4.718647 3.02474 31.381218 8.353999
2004-03-12 08:06:43 51°18.225 2°51.018 4.71773 3.015898 31.280675 8.421418
2004-03-12 08:06:49 51°18.241 2°50.989 4.71773 3.015898 31.280675 8.421418
2004-03-12 08:06:53 51°18.251 2°50.968 4.717781 3.014003 31.261439 8.421418
2004-03-12 08:06:59 51°18.266 2°50.938 4.72206 3.022109 31.356021 8.455127
2004-03-12 08:07:03 51°18.275 2°50.917 4.725269 3.024951 31.389445 8.724802
2004-03-12 08:07:09 51°18.29 2°50.886 4.72532 3.025162 31.390199 8.85964
2004-03-12 08:07:13 51°18.3 2°50.866 4.731788 3.021056 31.341462 8.691093
2004-03-12 08:07:19 51°18.314 2°50.835 4.731788 3.021056 31.341462 8.691093
2004-03-12 08:07:23 51°18.324 2°50.815 4.729445 3.021898 31.351948 8.724802
2004-03-12 08:07:29 51°18.339 2°50.784 4.734487 3.016213 31.284294 8.994477
2004-03-12 08:07:34 51°18.351 2°50.759 4.737746 3.024214 31.374353 8.82593
2004-03-12 08:07:39 51°18.363 2°50.733 4.741769 3.027056 31.403621 8.927059
2004-03-12 08:07:43 51°18.372 2°50.712 4.746759 3.025898 31.386193 8.792221
2004-03-12 08:07:49 51°18.387 2°50.681 4.746759 3.025898 31.386193 8.792221
2004-03-12 08:07:53 51°18.396 2°50.66 4.756483 3.020003 31.316965 9.028187
2004-03-12 08:07:59 51°18.411 2°50.629 4.755974 3.016424 31.272643 8.85964
2004-03-12 08:08:03 51°18.421 2°50.608 4.759945 3.024319 31.361456 8.994477
2004-03-12 08:08:09 51°18.435 2°50.577 4.765952 3.024214 31.355276 8.82593
2004-03-12 08:08:13 51°18.445 2°50.557 4.76809 3.011055 31.199594 9.129315
2004-03-12 08:08:19 51°18.46 2°50.526 4.76809 3.011055 31.199594 9.129315
2004-03-12 08:08:23 51°18.469 2°50.505 4.761574 3.025582 31.363495 9.163024
2004-03-12 08:08:29 51°18.484 2°50.474 4.767326 3.00337 31.105871 9.365281
2004-03-12 08:08:34 51°18.496 2°50.449 4.771093 3.023266 31.327856 9.061896
2004-03-12 08:08:39 51°18.508 2°50.423 4.771296 3.017055 31.253436 9.196734
2004-03-12 08:08:43 51°18.518 2°50.403 4.772009 3.023793 31.3314 9.061896
2004-03-12 08:08:49 51°18.533 2°50.372 4.772009 3.023793 31.3314 9.061896
2004-03-12 08:08:54 51°18.545 2°50.346 4.771042 3.019792 31.285596 9.365281
2004-03-12 08:08:59 51°18.558 2°50.321 4.774503 3.023371 31.323268 9.129315
2004-03-12 08:09:03 51°18.568 2°50.3 4.773179 3.022108 31.30715 9.028187
2004-03-12 08:09:09 51°18.582 2°50.27 4.770024 3.016318 31.239223 9.061896
2004-03-12 08:09:13 51°18.592 2°50.25 4.775928 3.017476 31.254127 9.196734
2004-03-12 08:09:19 51°18.607 2°50.219 4.775928 3.017476 31.254127 9.196734
2004-03-12 08:09:23 51°18.618 2°50.199 4.76585 2.993791 30.981545 9.4327
2004-03-12 08:09:29 51°18.633 2°50.168 4.766054 3.024845 31.338488 9.365281
2004-03-12 08:09:34 51°18.645 2°50.142 4.769973 3.023582 31.323196 9.163024
2004-03-12 08:09:39 51°18.657 2°50.118 4.760709 3.006844 31.129996 9.129315
2004-03-12 08:09:43 51°18.667 2°50.097 4.765748 3.021687 31.301503 8.893349
2004-03-12 08:09:49 51°18.682 2°50.066 4.764628 3.030109 31.400423 8.85964
2004-03-12 08:09:53 51°18.691 2°50.046 4.764628 3.030109 31.400423 8.85964
2004-03-12 08:09:59 51°18.706 2°50.015 4.759436 3.01716 31.253815 9.028187
2004-03-12 08:10:03 51°18.716 2°49.995 4.772823 3.026635 31.362294 9.196734
2004-03-12 08:10:09 51°18.731 2°49.964 4.772518 3.02274 31.318518 9.264153
2004-03-12 08:10:14 51°18.743 2°49.939 4.772976 3.021056 31.298406 9.769794
2004-03-12 08:10:19 51°18.756 2°49.913 4.772976 3.021056 31.298406 9.769794
2004-03-12 08:10:23 51°18.765 2°49.893 4.780711 3.032636 31.433515 9.230443
2004-03-12 08:10:29 51°18.78 2°49.862 4.786309 3.028425 31.38279 8.893349
2004-03-12 08:10:33 51°18.79 2°49.842 4.790125 3.031372 31.413233 9.331571
2004-03-12 08:10:39 51°18.805 2°49.812 4.796587 3.024003 31.32388 9.095606
2004-03-12 08:10:44 51°18.817 2°49.787 4.794806 3.025477 31.339925 9.061896
2004-03-12 08:10:49 51°18.829 2°49.761 4.794806 3.025477 31.339925 9.061896
2004-03-12 08:10:53 51°18.839 2°49.741 4.799131 3.018739 31.257854 9.230443
2004-03-12 08:10:59 51°18.854 2°49.711 4.795773 3.015371 31.214365 8.994477
2004-03-12 08:11:03 51°18.863 2°49.69 4.80554 3.013792 31.192186 9.39899
2004-03-12 08:11:09 51°18.878 2°49.659 4.800759 3.01495 31.202958 9.39899
2004-03-12 08:11:13 51°18.888 2°49.638 4.805642 3.016844 31.222981 9.196734
2004-03-12 08:11:19 51°18.902 2°49.608 4.805642 3.016844 31.222981 9.196734
2004-03-12 08:11:23 51°18.912 2°49.587 4.803607 3.018845 31.246682 9.196734
2004-03-12 08:11:29 51°18.927 2°49.557 4.813933 3.014318 31.190795 9.668665
2004-03-12 08:11:34 51°18.939 2°49.53 4.816069 3.014528 31.19238 9.163024
2004-03-12 08:11:39 51°18.951 2°49.505 4.823596 3.023687 31.29547 9.196734
2004-03-12 08:11:43 51°18.961 2°49.484 4.827817 3.016423 31.209929 9.331571
2004-03-12 08:11:49 51°18.977 2°49.453 4.827817 3.016423 31.209929 9.331571
2004-03-12 08:11:53 51°18.987 2°49.433 4.831478 3.011791 31.15451 9.331571
2004-03-12 08:11:59 51°19.002 2°49.401 4.829038 3.020739 31.251861 9.297862
2004-03-12 08:12:03 51°19.012 2°49.381 4.839664 3.014318 31.174342 9.837212
2004-03-12 08:12:09 51°19.027 2°49.35 4.840071 2.997159 30.972615 9.4327
2004-03-12 08:12:13 51°19.037 2°49.328 4.837376 3.020739 31.237853 9.803503
2004-03-12 08:12:19 51°19.051 2°49.296 4.837376 3.020739 31.237853 9.803503
2004-03-12 08:12:23 51°19.061 2°49.275 4.839105 3.005475 31.06266 9.702375
2004-03-12 08:12:29 51°19.076 2°49.243 4.835292 3.011159 31.123479 9.466409
2004-03-12 08:12:33 51°19.086 2°49.222 4.837275 3.01716 31.187908 9.567537
2004-03-12 08:12:39 51°19.101 2°49.191 4.837173 3.019055 31.209554 10.174306
2004-03-12 08:12:43 51°19.111 2°49.17 4.84363 3.017791 31.195945 9.129315
2004-03-12 08:12:49 51°19.126 2°49.139 4.84363 3.017791 31.195945 9.129315
2004-03-12 08:12:53 51°19.136 2°49.118 4.838393 3.014949 31.162658 9.702375
2004-03-12 08:12:59 51°19.151 2°49.086 4.836309 3.015475 31.168669 9.769794
2004-03-12 08:13:03 51°19.161 2°49.066 4.837783 3.020844 31.227529 9.702375
2004-03-12 08:13:09 51°19.176 2°49.035 4.836563 3.019897 31.216706 9.634956
2004-03-12 08:13:14 51°19.188 2°49.008 4.850899 3.009791 31.100472 9.365281
2004-03-12 08:13:19 51°19.2 2°48.982 4.850899 3.009791 31.100472 9.365281
2004-03-12 08:13:23 51°19.21 2°48.961 4.843121 3.014002 31.149374 9.500118
2004-03-12 08:13:29 51°19.225 2°48.929 4.838749 3.020528 31.224744 9.634956
2004-03-12 08:13:34 51°19.238 2°48.903 4.840783 3.017476 31.189871 9.567537
2004-03-12 08:13:39 51°19.251 2°48.877 4.84124 2.99958 30.982285 9.4327
2004-03-12 08:13:43 51°19.261 2°48.856 4.83758 3.019792 31.212213 9.769794
2004-03-12 08:13:49 51°19.276 2°48.825 4.83758 3.019792 31.212213 9.769794
2004-03-12 08:13:53 51°19.286 2°48.805 4.838546 3.018002 31.192595 9.769794
2004-03-12 08:13:59 51°19.3 2°48.773 4.836817 3.014107 31.148934 9.297862
2004-03-12 08:14:03 51°19.31 2°48.752 4.843121 3.020844 31.227529 9.297862
2004-03-12 08:14:09 51°19.323 2°48.719 4.844596 3.012949 31.138173 9.264153
2004-03-12 08:14:13 51°19.331 2°48.697 4.848815 3.017581 31.191074 9.736084
2004-03-12 08:14:19 51°19.343 2°48.662 4.848815 3.017581 31.191074 9.736084
2004-03-12 08:14:23 51°19.35 2°48.639 4.841596 3.000001 30.989539 9.736084
2004-03-12 08:14:29 51°19.36 2°48.604 4.843325 3.018212 31.196644 9.163024
2004-03-12 08:14:33 51°19.368 2°48.581 4.841545 3.020318 31.220693 9.668665
2004-03-12 08:14:39 51°19.378 2°48.545 4.84485 3.005791 31.053168 9.466409
2004-03-12 08:14:43 51°19.385 2°48.522 4.839512 3.020844 31.22506 9.769794
2004-03-12 08:14:49 51°19.394 2°48.485 4.839512 3.020844 31.22506 9.769794
2004-03-12 08:14:54 51°19.403 2°48.456 4.842867 3.020844 31.225883 10.106888
2004-03-12 08:14:59 51°19.411 2°48.426 4.845562 3.019581 31.211453 9.297862
2004-03-12 08:15:03 51°19.418 2°48.403 4.840579 3.001264 31.001505 10.208016
2004-03-12 08:15:09 51°19.428 2°48.367 4.846629 3.013686 31.145767 9.904631
2004-03-12 08:15:13 51°19.435 2°48.344 4.841596 3.014423 31.155004 9.668665
2004-03-12 08:15:19 51°19.445 2°48.308 4.841596 3.014423 31.155004 9.668665
2004-03-12 08:15:23 51°19.452 2°48.284 4.84729 3.016318 31.175002 9.837212
2004-03-12 08:15:29 51°19.462 2°48.248 4.845816 3.007685 31.076435 10.342853
2004-03-12 08:15:33 51°19.469 2°48.224 4.846019 3.021371 31.231896 9.870922
2004-03-12 08:15:39 51°19.479 2°48.188 4.846731 3.019476 31.211073 10.106888
2004-03-12 08:15:43 51°19.486 2°48.165 4.846934 3.007475 31.072394 9.567537
2004-03-12 08:15:49 51°19.496 2°48.129 4.846934 3.007475 31.072394 9.567537
2004-03-12 08:15:53 51°19.503 2°48.106 4.845917 3.021581 31.232655 9.634956
2004-03-12 08:15:59 51°19.514 2°48.07 4.842613 3.018949 31.202594 9.533828
2004-03-12 08:16:03 51°19.521 2°48.046 4.844799 3.019686 31.209366 9.634956
2004-03-12 08:16:09 51°19.531 2°48.011 4.845867 3.011265 31.113199 9.634956
2004-03-12 08:16:13 51°19.538 2°47.987 4.844138 3.014633 31.152482 9.230443
2004-03-12 08:16:19 51°19.548 2°47.952 4.844138 3.014633 31.152482 9.230443
2004-03-12 08:16:23 51°19.555 2°47.928 4.847188 3.021265 31.228225 9.297862
2004-03-12 08:16:29 51°19.566 2°47.892 4.847392 3.001264 30.998238 9.769794
2004-03-12 08:16:33 51°19.573 2°47.867 4.841342 3.010633 31.105169 9.4327
2004-03-12 08:16:39 51°19.584 2°47.831 4.845968 3.008212 31.079987 9.702375
2004-03-12 08:16:43 51°19.59 2°47.807 4.850137 3.020634 31.218542 10.005759
2004-03-12 08:16:49 51°19.602 2°47.772 4.850137 3.020634 31.218542 10.005759
2004-03-12 08:16:54 51°19.611 2°47.742 4.846934 3.020739 31.220567 9.061896
2004-03-12 08:16:59 51°19.62 2°47.712 4.842105 3.016107 31.170954 8.758512
2004-03-12 08:17:03 51°19.628 2°47.689 4.842766 3.014949 31.156909 9.061896
2004-03-12 08:17:09 51°19.639 2°47.653 4.845917 3.013791 31.142045 9.500118
2004-03-12 08:17:13 51°19.646 2°47.629 4.844138 3.020844 31.220947 9.264153
2004-03-12 08:17:19 51°19.656 2°47.593 4.844138 3.020844 31.220947 9.264153
2004-03-12 08:17:23 51°19.663 2°47.57 4.845714 3.017686 31.187344 8.960768
2004-03-12 08:17:29 51°19.674 2°47.535 4.847849 3.02095 31.22544 8.960768
2004-03-12 08:17:34 51°19.683 2°47.505 4.848256 3.021055 31.226642 9.4327
2004-03-12 08:17:39 51°19.692 2°47.476 4.854915 3.022002 31.236642 9.095606
2004-03-12 08:17:43 51°19.699 2°47.452 4.850798 3.022318 31.239426 8.994477
2004-03-12 08:17:49 51°19.71 2°47.417 4.850798 3.022318 31.239426 8.994477
2004-03-12 08:17:53 51°19.718 2°47.394 4.855576 3.022002 31.234173 9.129315
2004-03-12 08:17:59 51°19.728 2°47.358 4.852526 3.018633 31.194877 8.927059
2004-03-12 08:18:03 51°19.736 2°47.335 4.849222 3.022213 31.234932 9.095606
2004-03-12 08:18:09 51°19.746 2°47.3 4.855372 3.022213 31.234932 9.028187
2004-03-12 08:18:13 51°19.754 2°47.277 4.860048 3.02137 31.2212 9.230443
2004-03-12 08:18:19 51°19.764 2°47.242 4.860048 3.02137 31.2212 9.230443
2004-03-12 08:18:24 51°19.773 2°47.213 4.861268 3.020318 31.209179 8.893349
2004-03-12 08:18:29 51°19.782 2°47.184 4.866808 3.02295 31.240056 9.129315
2004-03-12 08:18:33 51°19.79 2°47.161 4.865944 3.024423 31.256065 9.028187
2004-03-12 08:18:39 51°19.8 2°47.125 4.867316 3.026002 31.272453 8.387708
2004-03-12 08:18:43 51°19.806 2°47.101 4.864877 3.026529 31.274346 8.792221
2004-03-12 08:18:49 51°19.815 2°47.065 4.864877 3.026529 31.274346 8.792221
2004-03-12 08:18:54 51°19.823 2°47.035 4.865283 3.028739 31.297121 9.668665
2004-03-12 08:18:59 51°19.83 2°47.005 4.870213 3.029371 31.299389 8.927059
2004-03-12 08:19:04 51°19.836 2°46.974 4.866859 3.030003 31.307426 8.82593
2004-03-12 08:19:09 51°19.843 2°46.944 4.86569 3.030319 31.309384 9.061896
2004-03-12 08:19:13 51°19.849 2°46.92 4.869755 3.031266 31.322678 8.85964
2004-03-12 08:19:19 51°19.857 2°46.884 4.869755 3.031266 31.322678 8.85964
2004-03-12 08:19:23 51°19.862 2°46.86 4.872652 3.029266 31.298187 9.061896
2004-03-12 08:19:29 51°19.87 2°46.824 4.872906 3.030213 31.309006 8.893349
2004-03-12 08:19:34 51°19.876 2°46.794 4.88007 3.028845 31.295026 8.556255
2004-03-12 08:19:39 51°19.883 2°46.763 4.878698 3.027476 31.280223 8.85964
2004-03-12 08:19:43 51°19.889 2°46.739 4.882001 3.032845 31.339062 8.792221
2004-03-12 08:19:49 51°19.897 2°46.703 4.882001 3.032845 31.339062 8.792221
2004-03-12 08:19:54 51°19.904 2°46.672 4.881086 3.033266 31.341396 8.792221
2004-03-12 08:19:59 51°19.911 2°46.642 4.887081 3.031582 31.318037 9.196734
2004-03-12 08:20:03 51°19.917 2°46.618 4.887132 3.03274 31.32961 8.657383
2004-03-12 08:20:09 51°19.925 2°46.581 4.88571 3.037056 31.37642 8.82593
2004-03-12 08:20:13 51°19.931 2°46.557 4.889875 3.040635 31.417297 8.589965
2004-03-12 08:20:18 51°19.938 2°46.527 4.889875 3.040635 31.417297 8.589965
2004-03-12 08:20:23 51°19.944 2°46.496 4.893127 3.042004 31.429619 8.387708
2004-03-12 08:20:29 51°19.95 2°46.458 4.890079 3.033371 31.328575 8.219161
2004-03-12 08:20:33 51°19.954 2°46.433 4.89206 3.043162 31.44119 8.118033
2004-03-12 08:20:39 51°19.959 2°46.395 4.894295 3.043478 31.44397 8.522546
2004-03-12 08:20:43 51°19.962 2°46.37 4.89272 3.043899 31.445469 8.050614
2004-03-12 08:20:49 51°19.966 2°46.331 4.89272 3.043899 31.445469 8.050614
2004-03-12 08:20:53 51°19.97 2°46.306 4.888605 3.041162 31.415866 8.488836
2004-03-12 08:20:59 51°19.974 2°46.267 4.892365 3.044425 31.452308 8.118033
2004-03-12 08:21:03 51°19.977 2°46.242 4.889317 3.043899 31.444641 8.522546
2004-03-12 08:21:09 51°19.982 2°46.203 4.889113 3.044215 31.449903 7.949486
2004-03-12 08:21:14 51°19.986 2°46.172 4.888758 3.045057 31.458694 8.387708
2004-03-12 08:21:19 51°19.989 2°46.139 4.888758 3.045057 31.458694 8.387708
2004-03-12 08:21:23 51°19.99 2°46.113 4.891095 3.045373 31.464785 8.016905
2004-03-12 08:21:29 51°19.991 2°46.074 4.889317 3.029687 31.284048 8.050614
2004-03-12 08:21:33 51°19.991 2°46.048 4.891247 3.043162 31.437881 8.084324
2004-03-12 08:21:39 51°19.988 2°46.009 4.895006 3.044951 31.456664 8.758512
2004-03-12 08:21:43 51°19.987 2°45.983 4.88952 3.043793 31.445094 8.050614
2004-03-12 08:21:49 51°19.982 2°45.944 4.88952 3.043793 31.445094 8.050614
2004-03-12 08:21:54 51°19.977 2°45.913 4.886421 3.040214 31.405047 8.455127
2004-03-12 08:21:59 51°19.971 2°45.882 4.88698 3.044741 31.455915 8.219161
2004-03-12 08:22:03 51°19.965 2°45.859 4.886726 3.04453 31.454338 7.71352
2004-03-12 08:22:09 51°19.955 2°45.823 4.887285 3.044741 31.456743 8.151742
2004-03-12 08:22:13 51°19.948 2°45.8 4.888656 3.040951 31.415942 7.679811
2004-03-12 08:22:19 51°19.935 2°45.766 4.888656 3.040951 31.415942 7.679811
2004-03-12 08:22:23 51°19.928 2°45.743 4.885303 3.044741 31.460883 8.118033
2004-03-12 08:22:29 51°19.915 2°45.71 4.888961 3.040319 31.411209 7.983195
2004-03-12 08:22:33 51°19.908 2°45.688 4.884998 3.027055 31.259773 8.589965
2004-03-12 08:22:38 51°19.898 2°45.66 4.882712 3.043583 31.448483 8.219161
2004-03-12 08:22:43 51°19.888 2°45.632 4.884592 3.041583 31.426464 8.623674
2004-03-12 08:22:49 51°19.877 2°45.598 4.884592 3.041583 31.426464 8.623674
2004-03-12 08:22:54 51°19.867 2°45.57 4.890282 3.039372 31.401216 8.320289
2004-03-12 08:22:59 51°19.857 2°45.542 4.883017 3.042951 31.439613 8.151742
2004-03-12 08:23:03 51°19.849 2°45.519 4.889113 3.032634 31.322636 8.28658
2004-03-12 08:23:09 51°19.837 2°45.486 4.884998 3.041583 31.423983 8.522546
2004-03-12 08:23:13 51°19.83 2°45.462 4.888504 3.043688 31.447202 8.151742
2004-03-12 08:23:19 51°19.818 2°45.428 4.888504 3.043688 31.447202 8.151742
2004-03-12 08:23:23 51°19.809 2°45.405 4.886421 3.042109 31.430822 8.28658
2004-03-12 08:23:29 51°19.798 2°45.371 4.889774 3.041477 31.422781 8.927059
2004-03-12 08:23:33 51°19.789 2°45.348 4.888961 3.040741 31.413538 8.084324
2004-03-12 08:23:39 51°19.778 2°45.313 4.881594 3.037582 31.378301 8.927059
2004-03-12 08:23:43 51°19.77 2°45.291 4.883423 3.036003 31.361096 8.28658
2004-03-12 08:23:49 51°19.758 2°45.256 4.883423 3.036003 31.361096 8.28658
2004-03-12 08:23:53 51°19.751 2°45.233 4.88134 3.042635 31.436006 8.758512
2004-03-12 08:23:59 51°19.739 2°45.199 4.879511 3.039793 31.403545 8.455127
2004-03-12 08:24:03 51°19.731 2°45.176 4.876056 3.041688 31.426012 8.792221
2004-03-12 08:24:09 51°19.72 2°45.141 4.88129 3.037372 31.377548 8.589965
2004-03-12 08:24:13 51°19.712 2°45.118 4.880781 3.034003 31.340734 8.623674
2004-03-12 08:24:19 51°19.701 2°45.083 4.880781 3.034003 31.340734 8.623674
2004-03-12 08:24:23 51°19.694 2°45.06 4.880223 3.039372 31.403696 8.691093
2004-03-12 08:24:29 51°19.683 2°45.024 4.88383 3.041478 31.430226 8.85964
2004-03-12 08:24:34 51°19.674 2°44.995 4.878241 3.02695 31.262686 8.691093
2004-03-12 08:24:39 51°19.665 2°44.966 4.876412 3.041162 31.424964 8.792221
2004-03-12 08:24:44 51°19.656 2°44.937 4.879054 3.042214 31.437816 8.758512
2004-03-12 08:24:49 51°19.647 2°44.907 4.879054 3.042214 31.437816 8.758512
2004-03-12 08:24:54 51°19.638 2°44.877 4.872804 3.041372 31.427369 8.85964
2004-03-12 08:24:59 51°19.628 2°44.848 4.872804 3.042214 31.438644 8.82593
2004-03-12 08:25:03 51°19.62 2°44.825 4.875497 3.042214 31.439472 8.994477
2004-03-12 08:25:09 51°19.609 2°44.79 4.872601 3.042214 31.4403 9.095606
2004-03-12 08:25:13 51°19.602 2°44.767 4.873109 3.037582 31.389867 9.095606
2004-03-12 08:25:19 51°19.59 2°44.732 4.873109 3.037582 31.389867 9.095606
2004-03-12 08:25:23 51°19.583 2°44.708 4.873109 3.042215 31.443611 9.061896
2004-03-12 08:25:29 51°19.572 2°44.673 4.871534 3.039793 31.416776 8.421418
2004-03-12 08:25:34 51°19.563 2°44.644 4.86945 3.04232 31.445642 8.522546
2004-03-12 08:25:39 51°19.554 2°44.615 4.870517 3.039477 31.413995 8.893349
2004-03-12 08:25:43 51°19.547 2°44.591 4.870162 3.04232 31.445642 8.792221
2004-03-12 08:25:49 51°19.536 2°44.556 4.870162 3.04232 31.445642 8.792221
2004-03-12 08:25:54 51°19.528 2°44.527 4.870772 3.042425 31.447673 8.960768
2004-03-12 08:25:59 51°19.519 2°44.498 4.871788 3.04253 31.450532 8.927059
2004-03-12 08:26:03 51°19.512 2°44.475 4.869501 3.042846 31.454141 8.522546
2004-03-12 08:26:09 51°19.501 2°44.44 4.871381 3.030634 31.314639 8.589965
2004-03-12 08:26:13 51°19.495 2°44.416 4.870213 3.041583 31.438878 9.196734
2004-03-12 08:26:19 51°19.484 2°44.381 4.870213 3.041583 31.438878 9.196734
2004-03-12 08:26:24 51°19.475 2°44.352 4.872906 3.04232 31.448126 8.724802
2004-03-12 08:26:29 51°19.467 2°44.322 4.870619 3.041162 31.434894 8.792221
2004-03-12 08:26:34 51°19.458 2°44.294 4.871127 3.040425 31.423992 8.792221
2004-03-12 08:26:39 51°19.45 2°44.263 4.870619 3.042109 31.44572 9.028187
2004-03-12 08:26:43 51°19.442 2°44.24 4.866147 3.042425 31.446845 9.365281
2004-03-12 08:26:49 51°19.432 2°44.205 4.866147 3.042425 31.446845 9.365281
2004-03-12 08:26:53 51°19.425 2°44.181 4.867977 3.036319 31.378743 8.792221
2004-03-12 08:26:59 51°19.414 2°44.147 4.866706 3.038846 31.408433 8.522546
2004-03-12 08:27:03 51°19.407 2°44.123 4.866757 3.042636 31.450907 8.82593
2004-03-12 08:27:09 51°19.396 2°44.088 4.864114 3.044004 31.469031 8.623674
2004-03-12 08:27:13 51°19.39 2°44.064 4.863962 3.043373 31.462642 9.129315
2004-03-12 08:27:19 51°19.379 2°44.029 4.863962 3.043373 31.462642 9.129315
2004-03-12 08:27:23 51°19.372 2°44.005 4.865385 3.042741 31.455423 8.691093
2004-03-12 08:27:29 51°19.361 2°43.969 4.863352 3.039793 31.422568 9.365281
2004-03-12 08:27:34 51°19.352 2°43.94 4.867773 3.043478 31.466331 8.994477
2004-03-12 08:27:39 51°19.343 2°43.911 4.86569 3.038109 31.407458 8.657383
2004-03-12 08:27:43 51°19.336 2°43.887 4.863555 3.042425 31.455956 8.522546
2004-03-12 08:27:49 51°19.324 2°43.852 4.863555 3.042425 31.455956 8.522546
2004-03-12 08:27:53 51°19.317 2°43.829 4.8663 3.039372 31.421894 9.028187
2004-03-12 08:27:59 51°19.305 2°43.794 4.86884 3.043373 31.465128 8.758512
2004-03-12 08:28:03 51°19.298 2°43.771 4.86447 3.042109 31.45069 8.82593
2004-03-12 08:28:09 51°19.286 2°43.736 4.864572 3.043057 31.462347 8.927059
2004-03-12 08:28:13 51°19.279 2°43.713 4.862183 3.042952 31.461144 8.657383
2004-03-12 08:28:19 51°19.267 2°43.679 4.862183 3.042952 31.461144 8.657383
2004-03-12 08:28:24 51°19.258 2°43.651 4.860302 3.034845 31.36769 8.82593
2004-03-12 08:28:29 51°19.25 2°43.621 4.861827 3.04432 31.475957 9.331571
2004-03-12 08:28:34 51°19.241 2°43.593 4.865385 3.044425 31.477989 8.82593
2004-03-12 08:28:39 51°19.233 2°43.563 4.859693 3.03095 31.326495 9.365281
2004-03-12 08:28:43 51°19.226 2°43.539 4.858625 3.041478 31.446784 8.960768
2004-03-12 08:28:49 51°19.216 2°43.504 4.858625 3.041478 31.446784 8.960768
2004-03-12 08:28:54 51°19.208 2°43.475 4.856999 3.041794 31.451222 8.82593
2004-03-12 08:28:59 51°19.2 2°43.445 4.859184 3.036214 31.386632 8.82593
2004-03-12 08:29:03 51°19.194 2°43.421 4.859388 3.043478 31.469646 8.994477
2004-03-12 08:29:09 51°19.184 2°43.386 4.856846 3.037793 31.405503 8.994477
2004-03-12 08:29:13 51°19.177 2°43.362 4.856897 3.046636 31.508239 8.85964
2004-03-12 08:29:19 51°19.166 2°43.329 4.856897 3.046636 31.508239 8.85964
2004-03-12 08:29:23 51°19.158 2°43.307 4.859083 3.034214 31.365431 8.589965
2004-03-12 08:29:29 51°19.145 2°43.275 4.851509 3.046742 31.507783 8.82593
2004-03-12 08:29:33 51°19.136 2°43.254 4.852119 3.047584 31.520733 8.691093
2004-03-12 08:29:39 51°19.122 2°43.224 4.851357 3.040741 31.443332 9.230443
2004-03-12 08:29:43 51°19.113 2°43.203 4.856541 3.041057 31.44777 8.724802
2004-03-12 08:29:49 51°19.098 2°43.174 4.856541 3.041057 31.44777 8.724802
2004-03-12 08:29:54 51°19.086 2°43.149 4.849832 3.037793 31.412951 9.264153
2004-03-12 08:29:59 51°19.074 2°43.123 4.854712 3.041899 31.460713 8.724802
2004-03-12 08:30:03 51°19.064 2°43.104 4.849781 3.039793 31.437471 8.85964
2004-03-12 08:30:09 51°19.049 2°43.074 4.851306 3.019686 31.206899 8.522546
2004-03-12 08:30:14 51°19.037 2°43.05 4.850696 3.043373 31.478394 9.028187
2004-03-12 08:30:19 51°19.025 2°43.025 4.850696 3.043373 31.478394 9.028187
2004-03-12 08:30:23 51°19.015 2°43.005 4.84851 3.047689 31.52692 8.994477
2004-03-12 08:30:29 51°19 2°42.975 4.847087 3.04811 31.533398 9.466409
2004-03-12 08:30:34 51°18.988 2°42.95 4.850594 3.0479 31.531821 9.028187
2004-03-12 08:30:39 51°18.976 2°42.925 4.848256 3.04811 31.533398 8.82593
2004-03-12 08:30:43 51°18.967 2°42.905 4.846782 3.048742 31.541453 9.095606
2004-03-12 08:30:49 51°18.952 2°42.874 4.846782 3.048742 31.541453 9.095606
2004-03-12 08:30:54 51°18.94 2°42.849 4.851153 3.049163 31.547932 8.960768
2004-03-12 08:30:59 51°18.928 2°42.823 4.850442 3.0499 31.556362 9.028187
2004-03-12 08:31:03 51°18.919 2°42.803 4.85156 3.050532 31.561924 8.455127
2004-03-12 08:31:09 51°18.904 2°42.772 4.848154 3.050953 31.568404 9.196734
2004-03-12 08:31:13 51°18.895 2°42.752 4.850798 3.045057 31.500144 8.85964
2004-03-12 08:31:19 51°18.881 2°42.721 4.850798 3.045057 31.500144 8.85964
2004-03-12 08:31:23 51°18.872 2°42.7 4.852678 3.050426 31.56072 9.39899
2004-03-12 08:31:29 51°18.858 2°42.668 4.851967 3.050637 31.56396 8.85964
2004-03-12 08:31:34 51°18.847 2°42.641 4.8479 3.048216 31.536264 8.691093
2004-03-12 08:31:39 51°18.835 2°42.614 4.849018 3.047479 31.527005 9.163024
2004-03-12 08:31:43 51°18.828 2°42.592 4.851103 3.052321 31.582396 8.623674
2004-03-12 08:31:49 51°18.815 2°42.559 4.851103 3.052321 31.582396 8.623674
2004-03-12 08:31:53 51°18.807 2°42.537 4.848103 3.052742 31.587213 9.601247
2004-03-12 08:31:59 51°18.795 2°42.504 4.848561 3.049268 31.549968 8.82593
2004-03-12 08:32:03 51°18.787 2°42.482 4.847443 3.048005 31.533025 8.421418
2004-03-12 08:32:09 51°18.774 2°42.449 4.846934 3.052637 31.586009 8.893349
2004-03-12 08:32:14 51°18.764 2°42.422 4.846426 3.050532 31.561924 9.230443
2004-03-12 08:32:19 51°18.755 2°42.394 4.846426 3.050532 31.561924 9.230443
2004-03-12 08:32:23 51°18.747 2°42.371 4.845816 3.043794 31.485698 8.927059
2004-03-12 08:32:29 51°18.735 2°42.338 4.84546 3.054322 31.606112 9.567537
2004-03-12 08:32:33 51°18.727 2°42.317 4.850391 3.0519 31.580076 8.657383
2004-03-12 08:32:39 51°18.715 2°42.284 4.842359 3.055585 31.622233 9.028187
2004-03-12 08:32:43 51°18.706 2°42.262 4.843833 3.056006 31.627885 8.758512
2004-03-12 08:32:49 51°18.693 2°42.23 4.843833 3.056006 31.627885 8.758512
2004-03-12 08:32:54 51°18.682 2°42.203 4.844392 3.055901 31.627514 8.85964
2004-03-12 08:32:59 51°18.672 2°42.176 4.848154 3.041794 31.465314 8.960768
2004-03-12 08:33:03 51°18.663 2°42.155 4.853085 3.058533 31.658467 8.927059
2004-03-12 08:33:09 51°18.651 2°42.122 4.870162 3.057164 31.643638 8.893349
2004-03-12 08:33:13 51°18.643 2°42.1 4.889266 3.063902 31.721596 8.893349
2004-03-12 08:33:19 51°18.631 2°42.067 4.889266 3.063902 31.721596 8.893349
2004-03-12 08:33:23 51°18.623 2°42.045 4.903235 3.064218 31.72354 9.297862
2004-03-12 08:33:29 51°18.611 2°42.013 4.912935 3.069587 31.781663 8.792221
2004-03-12 08:33:34 51°18.6 2°41.986 4.921618 3.072745 31.809445 9.668665
2004-03-12 08:33:39 51°18.589 2°41.959 4.927914 3.076009 31.832553 9.230443
2004-03-12 08:33:43 51°18.581 2°41.938 4.932584 3.079799 31.862509 9.230443
2004-03-12 08:33:49 51°18.568 2°41.905 4.932584 3.079799 31.862509 9.230443
2004-03-12 08:33:54 51°18.558 2°41.877 4.937153 3.082326 31.879673 9.163024
2004-03-12 08:33:59 51°18.548 2°41.85 4.940757 3.084221 31.891282 9.634956
2004-03-12 08:34:03 51°18.539 2°41.828 4.94365 3.086011 31.905038 9.500118
2004-03-12 08:34:09 51°18.527 2°41.795 4.945528 3.087169 31.912407 9.196734
2004-03-12 08:34:13 51°18.518 2°41.773 4.947 3.088011 31.916163 9.904631
2004-03-12 08:34:19 51°18.505 2°41.74 4.947 3.088011 31.916163 9.904631
2004-03-12 08:34:23 51°18.497 2°41.718 4.949538 3.087695 31.908358 9.095606
2004-03-12 08:34:29 51°18.484 2°41.685 4.948371 3.089485 31.925461 9.365281
2004-03-12 08:34:34 51°18.473 2°41.658 4.951416 3.08959 31.923308 9.702375
2004-03-12 08:34:39 51°18.463 2°41.629 4.952938 3.089906 31.926079 9.466409
2004-03-12 08:34:43 51°18.455 2°41.608 4.952482 3.08959 31.919114 9.837212
2004-03-12 08:34:49 51°18.444 2°41.574 4.952482 3.08959 31.919114 9.837212
2004-03-12 08:34:53 51°18.435 2°41.552 4.952279 3.090116 31.925129 9.196734
2004-03-12 08:34:59 51°18.423 2°41.519 4.95035 3.090222 31.924655 9.904631
2004-03-12 08:35:03 51°18.414 2°41.496 4.950756 3.090222 31.922977 9.500118
2004-03-12 08:35:09 51°18.402 2°41.463 4.953446 3.090432 31.924545 9.533828
2004-03-12 08:35:13 51°18.393 2°41.441 4.954156 3.090537 31.925748 9.870922
2004-03-12 08:35:19 51°18.381 2°41.408 4.954156 3.090537 31.925748 9.870922
2004-03-12 08:35:25 51°18.368 2°41.375 4.954816 3.089379 31.913353 9.230443
2004-03-12 08:35:29 51°18.36 2°41.353 4.953141 3.090959 31.93056 9.870922
2004-03-12 08:35:33 51°18.351 2°41.331 4.954055 3.088853 31.9065 9.39899
2004-03-12 08:35:39 51°18.339 2°41.297 4.955577 3.09159 31.9361 9.803503
2004-03-12 08:35:43 51°18.331 2°41.275 4.9571 3.091801 31.937667 9.297862
2004-03-12 08:35:49 51°18.319 2°41.241 4.9571 3.091801 31.937667 9.297862
2004-03-12 08:35:54 51°18.309 2°41.213 4.958571 3.092222 31.943319 9.803503
2004-03-12 08:35:59 51°18.298 2°41.186 4.960601 3.093275 31.95535 9.500118
2004-03-12 08:36:03 51°18.29 2°41.163 4.960804 3.092643 31.946452 9.736084
2004-03-12 08:36:09 51°18.278 2°41.129 4.964559 3.092854 31.946341 9.365281
2004-03-12 08:36:14 51°18.267 2°41.101 4.957709 3.092959 31.947544 9.634956
2004-03-12 08:36:19 51°18.258 2°41.073 4.957709 3.092959 31.947544 9.634956
2004-03-12 08:36:24 51°18.247 2°41.045 4.95918 3.093064 31.946229 9.736084
2004-03-12 08:36:29 51°18.237 2°41.018 4.958165 3.093064 31.94539 9.567537
2004-03-12 08:36:34 51°18.226 2°40.99 4.958977 3.093064 31.944551 9.601247
2004-03-12 08:36:39 51°18.216 2°40.962 4.959332 3.093169 31.946593 9.466409
2004-03-12 08:36:43 51°18.207 2°40.94 4.961616 3.093169 31.94911 9.769794
2004-03-12 08:36:49 51°18.195 2°40.907 4.961616 3.093169 31.94911 9.769794
2004-03-12 08:36:54 51°18.185 2°40.878 4.959332 3.093169 31.94911 9.870922
2004-03-12 08:36:59 51°18.175 2°40.851 4.960753 3.093275 31.950313 9.297862
2004-03-12 08:37:03 51°18.167 2°40.828 4.95781 3.093591 31.955601 9.466409
2004-03-12 08:37:09 51°18.155 2°40.794 4.960804 3.093801 31.955489 9.297862
2004-03-12 08:37:13 51°18.147 2°40.772 4.960246 3.093906 31.955852 9.061896
2004-03-12 08:37:19 51°18.134 2°40.738 4.960246 3.093906 31.955852 9.061896
2004-03-12 08:37:24 51°18.123 2°40.71 4.958876 3.094117 31.957419 9.297862
2004-03-12 08:37:29 51°18.114 2°40.681 4.95918 3.094328 31.959825 10.54511
2004-03-12 08:37:33 51°18.106 2°40.66 4.961819 3.094328 31.957307 9.297862
2004-03-12 08:37:39 51°18.094 2°40.626 4.96192 3.094433 31.960188 9.837212
2004-03-12 08:37:43 51°18.086 2°40.603 4.963798 3.095696 31.974623 9.702375
2004-03-12 08:37:49 51°18.074 2°40.57 4.963798 3.095696 31.974623 9.702375
2004-03-12 08:37:53 51°18.066 2°40.547 4.958723 3.095802 31.975826 9.567537
2004-03-12 08:37:59 51°18.053 2°40.514 4.966284 3.095486 31.971377 8.994477
2004-03-12 08:38:03 51°18.045 2°40.491 4.960398 3.095802 31.974147 9.736084
2004-03-12 08:38:09 51°18.032 2°40.458 4.961159 3.095907 31.976189 9.095606
2004-03-12 08:38:14 51°18.021 2°40.43 4.959941 3.096117 31.979435 9.230443
2004-03-12 08:38:19 51°18.011 2°40.402 4.959941 3.096117 31.979435 9.230443
2004-03-12 08:38:23 51°18.002 2°40.38 4.962783 3.096223 31.979798 9.365281
2004-03-12 08:38:29 51°17.989 2°40.346 4.962326 3.096433 31.983884 9.736084
2004-03-12 08:38:34 51°17.979 2°40.318 4.963087 3.096539 31.985087 9.4327
2004-03-12 08:38:39 51°17.969 2°40.29 4.96466 3.096644 31.98629 9.97205
2004-03-12 08:38:43 51°17.96 2°40.267 4.959688 3.096749 31.986653 9.331571
2004-03-12 08:38:49 51°17.947 2°40.233 4.959688 3.096749 31.986653 9.331571
2004-03-12 08:38:54 51°17.937 2°40.205 4.959079 3.097065 31.990262 9.297862
2004-03-12 08:38:59 51°17.927 2°40.176 4.962529 3.097381 31.993031 9.567537
2004-03-12 08:39:03 51°17.918 2°40.153 4.966284 3.097591 31.994597 9.028187
2004-03-12 08:39:09 51°17.907 2°40.121 4.962681 3.097907 31.998206 9.095606
2004-03-12 08:39:14 51°17.898 2°40.096 4.966639 3.098223 32.003496 9.297862
2004-03-12 08:39:19 51°17.889 2°40.073 4.966639 3.098223 32.003496 9.297862
2004-03-12 08:39:24 51°17.881 2°40.052 4.963798 3.098539 32.006265 9.533828
2004-03-12 08:39:29 51°17.873 2°40.032 4.960246 3.098644 32.004946 9.634956
2004-03-12 08:39:33 51°17.867 2°40.018 4.963849 3.099065 32.009758 9.129315
2004-03-12 08:39:39 51°17.858 2°39.997 4.958571 3.099276 32.009642 9.331571
2004-03-12 08:39:43 51°17.852 2°39.985 4.961261 3.100118 32.020107 9.297862
2004-03-12 08:39:49 51°17.843 2°39.967 4.961261 3.100118 32.020107 9.297862
2004-03-12 08:39:53 51°17.838 2°39.955 4.959941 3.099908 32.020224 9.264153
2004-03-12 08:39:59 51°17.829 2°39.939 4.957556 3.100013 32.022268 9.129315
2004-03-12 08:40:03 51°17.825 2°39.929 4.960703 3.100539 32.028283 9.668665
2004-03-12 08:40:09 51°17.817 2°39.915 4.961819 3.100645 32.03201 9.061896
2004-03-12 08:40:13 51°17.813 2°39.905 4.960398 3.100645 32.032852 8.960768
2004-03-12 08:40:19 51°17.806 2°39.893 4.960398 3.100645 32.032852 8.960768
2004-03-12 08:40:23 51°17.802 2°39.885 4.95918 3.100961 32.036462 9.39899
2004-03-12 08:40:29 51°17.795 2°39.874 4.958165 3.101592 32.044524 9.129315
2004-03-12 08:40:34 51°17.791 2°39.866 4.958926 3.102013 32.046812 9.668665
2004-03-12 08:40:39 51°17.787 2°39.859 4.958571 3.101803 32.044405 8.893349
2004-03-12 08:40:43 51°17.784 2°39.854 4.958926 3.102224 32.050902 9.129315
2004-03-12 08:40:49 51°17.781 2°39.848 4.958926 3.102224 32.050902 9.129315
2004-03-12 08:40:54 51°17.778 2°39.843 4.960753 3.102329 32.052106 9.163024
2004-03-12 08:40:59 51°17.776 2°39.838 4.961514 3.102645 32.055716 8.927059
2004-03-12 08:41:03 51°17.774 2°39.835 4.963899 3.102856 32.058123 9.129315
2004-03-12 08:41:09 51°17.773 2°39.83 4.96395 3.103172 32.062575 9.129315
2004-03-12 08:41:13 51°17.772 2°39.827 4.966335 3.103593 32.066547 9.163024
2004-03-12 08:41:19 51°17.771 2°39.822 4.966335 3.103593 32.066547 9.163024
2004-03-12 08:41:23 51°17.77 2°39.819 4.964813 3.103803 32.068112 9.533828
2004-03-12 08:41:29 51°17.769 2°39.815 4.966487 3.104224 32.072084 9.331571
2004-03-12 08:41:33 51°17.768 2°39.812 4.968009 3.104646 32.07437 9.230443
2004-03-12 08:41:38 51°17.767 2°39.808 4.970495 3.104646 32.072686 9.095606
2004-03-12 08:41:43 51°17.766 2°39.804 4.965929 3.105172 32.078702 9.230443
2004-03-12 08:41:49 51°17.766 2°39.8 4.965929 3.105172 32.078702 9.230443
2004-03-12 08:41:54 51°17.765 2°39.796 4.967502 3.105277 32.079063 9.736084
2004-03-12 08:41:59 51°17.764 2°39.793 4.965878 3.105698 32.083034 9.061896
2004-03-12 08:42:04 51°17.763 2°39.789 4.965421 3.106014 32.085802 9.163024
2004-03-12 08:42:09 51°17.762 2°39.786 4.964762 3.10633 32.090254 9.567537
2004-03-12 08:42:14 51°17.762 2°39.782 4.967299 3.106225 32.088208 9.163024
2004-03-12 08:42:19 51°17.761 2°39.779 4.967299 3.106225 32.088208 9.163024
2004-03-12 08:42:23 51°17.76 2°39.776 4.965878 3.106435 32.090615 9.028187
2004-03-12 08:42:29 51°17.76 2°39.771 4.966436 3.106435 32.0923 9.061896
2004-03-12 08:42:34 51°17.759 2°39.768 4.965675 3.106751 32.096754 9.601247
2004-03-12 08:42:39 51°17.758 2°39.764 4.966842 3.106751 32.096754 9.196734
2004-03-12 08:42:44 51°17.758 2°39.761 4.967857 3.106857 32.097957 9.668665
2004-03-12 08:42:49 51°17.757 2°39.757 4.967857 3.106857 32.097957 9.668665
2004-03-12 08:42:54 51°17.757 2°39.754 4.967553 3.106962 32.098318 9.365281
2004-03-12 08:42:59 51°17.756 2°39.75 4.966335 3.107067 32.099521 8.893349
2004-03-12 08:43:03 51°17.756 2°39.747 4.967045 3.107172 32.099881 9.095606
2004-03-12 08:43:09 51°17.755 2°39.743 4.967248 3.107278 32.101085 9.634956
2004-03-12 08:43:13 51°17.755 2°39.74 4.967806 3.107278 32.101085 9.297862
2004-03-12 08:43:19 51°17.754 2°39.735 4.967806 3.107278 32.101085 9.297862
2004-03-12 08:43:24 51°17.754 2°39.732 4.970444 3.107383 32.102288 9.331571
2004-03-12 08:43:29 51°17.753 2°39.728 4.971307 3.107488 32.102649 9.331571
2004-03-12 08:43:34 51°17.753 2°39.724 4.971003 3.107804 32.105416 8.994477
2004-03-12 08:43:39 51°17.753 2°39.721 4.972119 3.107488 32.101806 9.129315
2004-03-12 08:43:44 51°17.752 2°39.717 4.973032 3.108752 32.116247 9.196734
2004-03-12 08:43:49 51°17.752 2°39.713 4.973032 3.108752 32.116247 9.196734
2004-03-12 08:43:54 51°17.751 2°39.709 4.975873 3.107804 32.102887 9.634956
2004-03-12 08:43:59 51°17.751 2°39.705 4.973489 3.108015 32.105294 9.331571
2004-03-12 08:44:03 51°17.751 2°39.702 4.976127 3.10812 32.106497 9.230443
2004-03-12 08:44:09 51°17.751 2°39.698 4.9812 3.10812 32.105654 9.196734
2004-03-12 08:44:13 51°17.75 2°39.694 4.980388 3.107488 32.097592 9.39899
2004-03-12 08:44:19 51°17.75 2°39.69 4.980388 3.107488 32.097592 9.39899
2004-03-12 08:44:24 51°17.75 2°39.686 4.981149 3.108646 32.109141 9.97205
2004-03-12 08:44:29 51°17.75 2°39.682 4.982468 3.108436 32.105892 9.365281
2004-03-12 08:44:34 51°17.75 2°39.678 4.984243 3.108752 32.106973 9.567537
2004-03-12 08:44:39 51°17.749 2°39.674 4.984192 3.109173 32.108414 9.904631
2004-03-12 08:44:43 51°17.749 2°39.671 4.984243 3.109278 32.109617 9.129315
2004-03-12 08:44:49 51°17.749 2°39.666 4.984243 3.109278 32.109617 9.129315
2004-03-12 08:44:54 51°17.749 2°39.662 4.988098 3.109278 32.107932 9.736084
2004-03-12 08:44:59 51°17.749 2°39.658 4.991344 3.109489 32.108652 9.061896
2004-03-12 08:45:03 51°17.749 2°39.655 4.994235 3.109805 32.113104 9.230443
2004-03-12 08:45:09 51°17.749 2°39.65 4.996821 3.10991 32.113464 9.736084
2004-03-12 08:45:13 51°17.749 2°39.647 5.000422 3.109278 32.106246 9.769794
2004-03-12 08:45:19 51°17.749 2°39.642 5.000422 3.109278 32.106246 9.769794
2004-03-12 08:45:23 51°17.749 2°39.639 5.001791 3.11012 32.113341 8.994477
2004-03-12 08:45:29 51°17.749 2°39.635 5.005239 3.110541 32.11731 9.736084
2004-03-12 08:45:33 51°17.749 2°39.631 5.006101 3.110752 32.113816 9.331571
2004-03-12 08:45:39 51°17.749 2°39.627 5.010107 3.110752 32.112131 9.331571
2004-03-12 08:45:43 51°17.749 2°39.623 5.009499 3.111068 32.113212 9.095606
2004-03-12 08:45:49 51°17.749 2°39.618 5.009499 3.111068 32.113212 9.095606
2004-03-12 08:45:53 51°17.749 2°39.615 5.008434 3.111173 32.111045 9.904631
2004-03-12 08:45:59 51°17.749 2°39.611 5.010513 3.111489 32.111283 9.904631
2004-03-12 08:46:03 51°17.75 2°39.607 5.012085 3.111699 32.113687 9.870922
2004-03-12 08:46:09 51°17.75 2°39.602 5.013251 3.11191 32.113565 10.241725
2004-03-12 08:46:13 51°17.75 2°39.599 5.015025 3.112331 32.119216 9.702375
2004-03-12 08:46:19 51°17.75 2°39.594 5.015025 3.112331 32.119216 9.702375
2004-03-12 08:46:23 51°17.75 2°39.59 5.01756 3.112121 32.11597 9.668665
2004-03-12 08:46:29 51°17.75 2°39.585 5.019081 3.112015 32.113083 9.769794
2004-03-12 08:46:34 51°17.75 2°39.581 5.023694 3.112331 32.115847 9.028187
2004-03-12 08:46:39 51°17.75 2°39.577 5.02628 3.112542 32.115725 9.365281
2004-03-12 08:46:44 51°17.751 2°39.573 5.02557 3.112752 32.116445 9.061896
2004-03-12 08:46:49 51°17.751 2°39.568 5.02557 3.112752 32.116445 9.061896
2004-03-12 08:46:54 51°17.751 2°39.564 5.029676 3.112542 32.113199 9.331571
2004-03-12 08:46:59 51°17.751 2°39.56 5.030639 3.112858 32.115121 10.073178
2004-03-12 08:47:03 51°17.751 2°39.557 5.030639 3.113279 32.115719 9.870922
2004-03-12 08:47:09 51°17.751 2°39.552 5.031957 3.113173 32.113675 9.39899
2004-03-12 08:47:14 51°17.751 2°39.547 5.032514 3.113805 32.11836 9.500118
2004-03-12 08:47:19 51°17.751 2°39.543 5.032514 3.113805 32.11836 9.500118
2004-03-12 08:47:24 51°17.752 2°39.539 5.030081 3.1137 32.114633 9.297862
2004-03-12 08:47:29 51°17.752 2°39.535 5.026888 3.114016 32.116554 10.039469
2004-03-12 08:47:33 51°17.752 2°39.531 5.025367 3.114331 32.121843 9.533828
2004-03-12 08:47:39 51°17.752 2°39.526 5.022173 3.114226 32.118116 9.331571
2004-03-12 08:47:43 51°17.752 2°39.523 5.024049 3.114016 32.117396 9.264153
2004-03-12 08:47:49 51°17.752 2°39.518 5.024049 3.114016 32.117396 9.264153
2004-03-12 08:47:54 51°17.752 2°39.514 5.022579 3.11391 32.115353 9.4327
2004-03-12 08:47:59 51°17.752 2°39.51 5.020653 3.11391 32.117036 9.365281
2004-03-12 08:48:04 51°17.752 2°39.506 5.019132 3.113805 32.119202 9.466409
2004-03-12 08:48:09 51°17.752 2°39.502 5.017104 3.113805 32.120886 9.39899
2004-03-12 08:48:13 51°17.753 2°39.498 5.014315 3.113805 32.120886 9.264153
2004-03-12 08:48:19 51°17.753 2°39.494 5.014315 3.113805 32.120886 9.264153
2004-03-12 08:48:23 51°17.753 2°39.49 5.012389 3.113489 32.118122 9.39899
2004-03-12 08:48:29 51°17.753 2°39.486 5.017611 3.113489 32.118964 9.601247
2004-03-12 08:48:33 51°17.753 2°39.482 5.0132 3.114121 32.127859 9.230443
2004-03-12 08:48:39 51°17.753 2°39.477 5.012287 3.113489 32.12149 9.668665
2004-03-12 08:48:43 51°17.753 2°39.474 5.012693 3.113279 32.122455 9.365281
2004-03-12 08:48:49 51°17.753 2°39.469 5.012693 3.113279 32.122455 9.365281
2004-03-12 08:48:54 51°17.753 2°39.465 5.015279 3.113384 32.124499 9.668665
2004-03-12 08:48:59 51°17.752 2°39.461 5.014468 3.113068 32.118367 9.668665
2004-03-12 08:49:03 51°17.752 2°39.458 5.009144 3.113279 32.122455 9.196734
2004-03-12 08:49:09 51°17.752 2°39.453 5.008333 3.113384 32.124499 9.601247
2004-03-12 08:49:13 51°17.752 2°39.45 5.007572 3.113068 32.120893 9.163024
2004-03-12 08:49:19 51°17.752 2°39.445 5.007572 3.113068 32.120893 9.163024
2004-03-12 08:49:23 51°17.752 2°39.442 5.003059 3.113279 32.124139 9.466409
2004-03-12 08:49:29 51°17.752 2°39.437 5.00387 3.113279 32.124982 9.769794
2004-03-12 08:49:33 51°17.752 2°39.434 4.997176 3.112436 32.116207 10.410272
2004-03-12 08:49:39 51°17.752 2°39.429 4.995148 3.112858 32.121858 9.769794
2004-03-12 08:49:43 51°17.752 2°39.426 4.995554 3.112752 32.123183 9.567537
2004-03-12 08:49:49 51°17.751 2°39.421 4.995554 3.112752 32.123183 9.567537
2004-03-12 08:49:53 51°17.751 2°39.418 4.994184 3.112226 32.120541 9.297862
2004-03-12 08:49:59 51°17.751 2°39.413 4.992713 3.112331 32.125114 9.736084
2004-03-12 08:50:03 51°17.751 2°39.41 4.990431 3.103908 32.031458 9.668665
2004-03-12 08:50:09 51°17.751 2°39.405 4.99104 3.112226 32.127282 9.196734
2004-03-12 08:50:13 51°17.751 2°39.402 4.990938 3.111805 32.124157 9.601247
2004-03-12 08:50:19 51°17.751 2°39.397 4.990938 3.111805 32.124157 9.601247
2004-03-12 08:50:23 51°17.751 2°39.394 4.987743 3.1117 32.122955 9.702375
2004-03-12 08:50:29 51°17.751 2°39.389 4.987439 3.111384 32.121875 9.533828
2004-03-12 08:50:33 51°17.751 2°39.386 4.988656 3.1117 32.126326 9.533828
2004-03-12 08:50:39 51°17.751 2°39.381 4.986272 3.11191 32.130418 9.904631
2004-03-12 08:50:44 51°17.75 2°39.377 4.988707 3.111489 32.126449 9.97205
2004-03-12 08:50:49 51°17.75 2°39.373 4.986424 3.111384 32.125247 10.039469
2004-03-12 08:50:54 51°17.75 2°39.369 4.986424 3.111384 32.125247 10.039469
2004-03-12 08:50:59 51°17.75 2°39.365 4.982873 3.111384 32.125247 9.702375
2004-03-12 08:51:03 51°17.75 2°39.362 4.987439 3.111384 32.126933 9.466409
2004-03-12 08:51:09 51°17.75 2°39.357 4.985308 3.111489 32.127292 10.106888
2004-03-12 08:51:14 51°17.75 2°39.353 4.98967 3.111384 32.128619 9.601247
2004-03-12 08:51:19 51°17.749 2°39.349 4.98967 3.111384 32.128619 9.601247
2004-03-12 08:51:23 51°17.749 2°39.346 4.990279 3.1117 32.133071 9.769794
2004-03-12 08:51:29 51°17.749 2°39.341 4.98962 3.111173 32.126213 9.500118
2004-03-12 08:51:33 51°17.749 2°39.338 4.989112 3.111068 32.123324 9.736084
2004-03-12 08:51:39 51°17.749 2°39.333 4.989265 3.111384 32.128619 9.904631
2004-03-12 08:51:43 51°17.749 2°39.33 4.989822 3.111384 32.12609 9.736084
2004-03-12 08:51:49 51°17.748 2°39.325 4.989822 3.111384 32.12609 9.736084
2004-03-12 08:51:54 51°17.748 2°39.321 4.987844 3.111489 32.127292 9.567537
2004-03-12 08:51:59 51°17.748 2°39.317 4.987084 3.111489 32.127292 9.803503
2004-03-12 08:52:03 51°17.747 2°39.314 4.985511 3.111805 32.130901 9.466409
2004-03-12 08:52:09 51°17.747 2°39.309 4.984243 3.111384 32.12609 10.073178
2004-03-12 08:52:13 51°17.747 2°39.306 4.983482 3.1117 32.129698 9.39899
2004-03-12 08:52:19 51°17.746 2°39.301 4.983482 3.1117 32.129698 9.39899
2004-03-12 08:52:23 51°17.746 2°39.298 4.984953 3.111173 32.124527 9.365281
2004-03-12 08:52:29 51°17.745 2°39.293 4.983279 3.111384 32.126933 9.97205
2004-03-12 08:52:33 51°17.745 2°39.29 4.984446 3.111384 32.127776 9.870922
2004-03-12 08:52:39 51°17.745 2°39.286 4.982924 3.111594 32.131025 9.668665
2004-03-12 08:52:43 51°17.744 2°39.282 4.983026 3.111173 32.128742 10.612529
2004-03-12 08:52:49 51°17.743 2°39.278 4.983026 3.111173 32.128742 10.612529
2004-03-12 08:52:53 51°17.743 2°39.275 4.985105 3.111173 32.127899 9.668665
2004-03-12 08:52:59 51°17.742 2°39.27 4.983989 3.110963 32.126336 9.702375
2004-03-12 08:53:03 51°17.742 2°39.267 4.984192 3.111279 32.129945 9.702375
2004-03-12 08:53:09 51°17.741 2°39.263 4.983787 3.111279 32.129945 9.634956
2004-03-12 08:53:14 51°17.741 2°39.259 4.9847 3.110963 32.126336 9.567537
2004-03-12 08:53:19 51°17.74 2°39.255 4.9847 3.110963 32.126336 9.567537
2004-03-12 08:53:23 51°17.74 2°39.252 4.984345 3.111384 32.131148 9.837212
2004-03-12 08:53:29 51°17.739 2°39.247 4.982671 3.1117 32.133914 9.634956
2004-03-12 08:53:34 51°17.739 2°39.243 4.982468 3.111279 32.129102 9.668665
2004-03-12 08:53:39 51°17.738 2°39.239 4.982721 3.111489 32.131508 9.736084
2004-03-12 08:53:43 51°17.738 2°39.236 4.984142 3.111068 32.126696 9.264153
2004-03-12 08:53:49 51°17.737 2°39.232 4.984142 3.111068 32.126696 9.264153
2004-03-12 08:53:54 51°17.736 2°39.228 4.986678 3.111279 32.129945 9.668665
2004-03-12 08:53:59 51°17.736 2°39.224 4.984547 3.111173 32.127899 9.803503
2004-03-12 08:54:03 51°17.735 2°39.221 4.980997 3.111279 32.130789 9.904631
2004-03-12 08:54:09 51°17.734 2°39.216 4.983127 3.111173 32.128742 10.106888
2004-03-12 08:54:14 51°17.734 2°39.213 4.982924 3.111068 32.126696 9.500118
2004-03-12 08:54:19 51°17.733 2°39.209 4.982924 3.111068 32.126696 9.500118
2004-03-12 08:54:23 51°17.733 2°39.206 4.983026 3.111068 32.127539 9.803503
2004-03-12 08:54:29 51°17.732 2°39.202 4.981808 3.111068 32.127539 9.39899
2004-03-12 08:54:33 51°17.731 2°39.199 4.98054 3.110963 32.128023 9.634956
2004-03-12 08:54:39 51°17.731 2°39.195 4.981758 3.111068 32.128383 10.039469
2004-03-12 08:54:43 51°17.73 2°39.192 4.983229 3.111384 32.131992 9.736084
2004-03-12 08:54:49 51°17.729 2°39.187 4.983229 3.111384 32.131992 9.736084
2004-03-12 08:54:53 51°17.729 2°39.184 4.983026 3.111173 32.130429 9.769794
2004-03-12 08:54:59 51°17.728 2°39.18 4.98404 3.111173 32.129586 10.106888
2004-03-12 08:55:04 51°17.727 2°39.177 4.981808 3.111068 32.130069 9.736084
2004-03-12 08:55:09 51°17.727 2°39.173 4.982315 3.111068 32.130069 9.803503
2004-03-12 08:55:14 51°17.726 2°39.17 4.982113 3.111173 32.128742 10.578819
2004-03-12 08:55:19 51°17.725 2°39.166 4.982113 3.111173 32.128742 10.578819
2004-03-12 08:55:23 51°17.724 2°39.163 4.982265 3.111068 32.127539 9.668665
2004-03-12 08:55:29 51°17.724 2°39.159 4.981402 3.111173 32.130429 9.870922
2004-03-12 08:55:33 51°17.723 2°39.156 4.980794 3.111173 32.129586 10.410272
2004-03-12 08:55:39 51°17.722 2°39.152 4.979881 3.111384 32.131992 10.073178
2004-03-12 08:55:43 51°17.721 2°39.149 4.979221 3.111068 32.129226 9.870922
2004-03-12 08:55:49 51°17.72 2°39.145 4.979221 3.111068 32.129226 9.870922
2004-03-12 08:55:54 51°17.718 2°39.142 4.980388 3.111068 32.129226 10.073178
2004-03-12 08:55:59 51°17.716 2°39.139 4.981352 3.111173 32.130429 10.241725
2004-03-12 08:56:04 51°17.713 2°39.137 4.978765 3.111489 32.134882 9.904631
2004-03-12 08:56:09 51°17.711 2°39.135 4.977446 3.111384 32.134522 10.241725
2004-03-12 08:56:14 51°17.708 2°39.134 4.978409 3.111279 32.133319 9.904631
2004-03-12 08:56:19 51°17.705 2°39.134 4.978409 3.111279 32.133319 9.904631
2004-03-12 08:56:24 51°17.702 2°39.133 4.978105 3.110857 32.127663 9.870922
2004-03-12 08:56:29 51°17.699 2°39.134 4.97704 3.111489 32.138256 10.342853
2004-03-12 08:56:34 51°17.697 2°39.135 4.977395 3.111489 32.136569 10.106888
2004-03-12 08:56:39 51°17.694 2°39.137 4.975518 3.110857 32.130193 9.769794
2004-03-12 08:56:44 51°17.692 2°39.14 4.975569 3.111173 32.133803 9.904631
2004-03-12 08:56:49 51°17.69 2°39.143 4.975569 3.111173 32.133803 9.904631
2004-03-12 08:56:53 51°17.689 2°39.146 4.975163 3.110963 32.133083 9.904631
2004-03-12 08:56:59 51°17.688 2°39.151 4.977141 3.111384 32.136209 9.736084
2004-03-12 08:57:03 51°17.687 2°39.154 4.974402 3.110963 32.13224 10.106888
2004-03-12 08:57:09 51°17.687 2°39.16 4.973793 3.111384 32.137896 9.736084
2004-03-12 08:57:13 51°17.687 2°39.164 4.976634 3.111279 32.13838 9.97205
2004-03-12 08:57:19 51°17.688 2°39.171 4.976634 3.111279 32.13838 9.97205
2004-03-12 08:57:23 51°17.689 2°39.175 4.974757 3.111068 32.13513 10.54511
2004-03-12 08:57:29 51°17.69 2°39.183 4.977902 3.111489 32.1391 10.410272
2004-03-12 08:57:33 51°17.692 2°39.188 4.975112 3.111595 32.142834 10.174306
2004-03-12 08:57:39 51°17.695 2°39.196 4.977547 3.1117 32.141506 10.54511
2004-03-12 08:57:43 51°17.697 2°39.202 4.979881 3.111594 32.140303 10.814785
2004-03-12 08:57:49 51°17.7 2°39.211 4.979881 3.111594 32.140303 10.814785
2004-03-12 08:57:53 51°17.701 2°39.217 4.97775 3.111489 32.137412 10.477691
2004-03-12 08:57:59 51°17.704 2°39.227 4.978004 3.112331 32.147038 10.309144
2004-03-12 08:58:03 51°17.706 2°39.234 4.977091 3.112016 32.143429 10.309144
2004-03-12 08:58:09 51°17.709 2°39.244 4.978917 3.112647 32.149804 10.376563
2004-03-12 08:58:13 51°17.711 2°39.251 4.977243 3.112858 32.150523 10.646238
2004-03-12 08:58:19 51°17.714 2°39.262 4.977243 3.112858 32.150523 10.646238
2004-03-12 08:58:23 51°17.715 2°39.27 4.975264 3.112647 32.148117 10.983332
2004-03-12 08:58:29 51°17.717 2°39.281 4.976076 3.113068 32.153773 10.376563
2004-03-12 08:58:34 51°17.718 2°39.29 4.972423 3.113384 32.157383 10.275435
2004-03-12 08:58:39 51°17.719 2°39.3 4.977243 3.113595 32.160634 10.477691
2004-03-12 08:58:44 51°17.72 2°39.31 4.974047 3.113595 32.160634 10.646238
2004-03-12 08:58:49 51°17.721 2°39.32 4.974047 3.113595 32.160634 10.646238